Wetterdaten: Samstag, 07.03.2020
Datum Zeit Temp. Aussen Temp. o. S. Temp +5cm Feuchte Auss Luftdruck Regen Sonnenschein Regendauer Solar Windben Empfang
07.03.2020 00:00 2,9 C 1,7 C 1,7 C 94 % 1010,4 hPa 0,0 l/m 0 min 0 min 0 W/m 6,4 km/h (2 Bft) 97,87 %
07.03.2020 00:02 2,9 C 1,7 C 1,7 C 94 % 1010,5 hPa 0,0 l/m 0 min 0 min 0 W/m 3,2 km/h (1 Bft) 94,59 %
07.03.2020 00:04 2,9 C 1,7 C 1,7 C 94 % 1010,5 hPa 0,0 l/m 0 min 0 min 0 W/m 0,0 km/h (0 Bft) 97,83 %
07.03.2020 00:08 2,9 C 1,7 C 1,7 C 94 % 1010,5 hPa 0,0 l/m 0 min 0 min 0 W/m 3,2 km/h (1 Bft) 95,74 %
07.03.2020 00:10 2,8 C 1,7 C 1,1 C 94 % 1010,5 hPa 0,0 l/m 0 min 0 min 0 W/m 0,0 km/h (0 Bft) 97,87 %
07.03.2020 00:12 2,8 C 1,7 C 1,1 C 94 % 1010,5 hPa 0,0 l/m 0 min 0 min 0 W/m 0,0 km/h (0 Bft) 97,87 %
07.03.2020 00:14 2,8 C 1,7 C 1,1 C 94 % 1010,5 hPa 0,0 l/m 0 min 0 min 0 W/m 0,0 km/h (0 Bft) 97,87 %
07.03.2020 00:16 2,8 C 1,7 C 1,1 C 94 % 1010,6 hPa 0,0 l/m 0 min 0 min 0 W/m 0,0 km/h (0 Bft) 97,83 %
07.03.2020 00:18 2,8 C 1,7 C 1,1 C 94 % 1010,6 hPa 0,0 l/m 0 min 0 min 0 W/m 0,0 km/h (0 Bft) 87,23 %
07.03.2020 00:20 2,8 C 1,7 C 1,1 C 94 % 1010,7 hPa 0,0 l/m 0 min 0 min 0 W/m 3,2 km/h (1 Bft) 65,96 %
07.03.2020 00:22 2,8 C 1,7 C 1,1 C 94 % 1010,7 hPa 0,0 l/m 0 min 0 min 0 W/m 0,0 km/h (0 Bft) 97,87 %
07.03.2020 00:24 2,8 C 1,7 C 1,1 C 94 % 1010,7 hPa 0,0 l/m 0 min 0 min 0 W/m 0,0 km/h (0 Bft) 97,87 %
07.03.2020 00:26 2,7 C 1,7 C 1,1 C 95 % 1010,8 hPa 0,0 l/m 0 min 0 min 0 W/m 0,0 km/h (0 Bft) 97,87 %
07.03.2020 00:28 2,7 C 1,7 C 1,1 C 95 % 1010,8 hPa 0,0 l/m 0 min 0 min 0 W/m 0,0 km/h (0 Bft) 95,65 %
07.03.2020 00:30 2,7 C 2,2 C 1,1 C 95 % 1010,8 hPa 0,0 l/m 0 min 0 min 0 W/m 0,0 km/h (0 Bft) 97,87 %
07.03.2020 00:32 2,7 C 2,2 C 1,7 C 95 % 1010,9 hPa 0,0 l/m 0 min 0 min 0 W/m 0,0 km/h (0 Bft) 95,74 %
07.03.2020 00:34 2,7 C 2,2 C 1,7 C 95 % 1010,9 hPa 0,0 l/m 0 min 0 min 0 W/m 0,0 km/h (0 Bft) 97,87 %
07.03.2020 00:36 2,7 C 2,2 C 1,7 C 95 % 1010,9 hPa 0,0 l/m 0 min 0 min 0 W/m 0,0 km/h (0 Bft) 95,74 %
07.03.2020 00:38 2,7 C 2,2 C 1,7 C 95 % 1010,9 hPa 0,0 l/m 0 min 0 min 0 W/m 0,0 km/h (0 Bft) 95,74 %
07.03.2020 00:40 2,7 C 2,2 C 1,7 C 95 % 1010,9 hPa 0,0 l/m 0 min 0 min 0 W/m 0,0 km/h (0 Bft) 95,65 %
07.03.2020 00:42 2,7 C 2,2 C 1,7 C 95 % 1010,9 hPa 0,0 l/m 0 min 0 min 0 W/m 0,0 km/h (0 Bft) 95,74 %
07.03.2020 00:44 2,7 C 2,2 C 1,7 C 95 % 1011,0 hPa 0,0 l/m 0 min 0 min 0 W/m 0,0 km/h (0 Bft) 93,62 %
07.03.2020 00:46 2,8 C 2,2 C 1,7 C 95 % 1011,0 hPa 0,0 l/m 0 min 0 min 0 W/m 0,0 km/h (0 Bft) 95,74 %
07.03.2020 00:48 2,7 C 2,2 C 1,7 C 95 % 1011,1 hPa 0,0 l/m 0 min 0 min 0 W/m 0,0 km/h (0 Bft) 95,74 %
07.03.2020 00:50 2,8 C 2,2 C 1,7 C 95 % 1011,1 hPa 0,0 l/m 0 min 0 min 0 W/m 0,0 km/h (0 Bft) 95,65 %
07.03.2020 00:52 2,8 C 2,2 C 1,7 C 95 % 1011,1 hPa 0,0 l/m 0 min 0 min 0 W/m 0,0 km/h (0 Bft) 95,74 %
07.03.2020 00:54 2,8 C 2,2 C 1,7 C 95 % 1011,1 hPa 0,0 l/m 0 min 0 min 0 W/m 0,0 km/h (0 Bft) 95,74 %
07.03.2020 00:56 2,8 C 2,2 C 1,7 C 95 % 1011,2 hPa 0,0 l/m 0 min 0 min 0 W/m 0,0 km/h (0 Bft) 95,74 %
07.03.2020 00:58 2,8 C 2,8 C 2,2 C 95 % 1011,2 hPa 0,0 l/m 0 min 0 min 0 W/m 0,0 km/h (0 Bft) 93,62 %
07.03.2020 01:00 2,8 C 2,8 C 2,2 C 95 % 1011,2 hPa 0,0 l/m 0 min 0 min 0 W/m 3,2 km/h (1 Bft) 93,62 %
07.03.2020 01:02 2,9 C 2,8 C 2,2 C 95 % 1011,2 hPa 0,0 l/m 0 min 0 min 0 W/m 0,0 km/h (0 Bft) 95,65 %
07.03.2020 01:04 2,9 C 2,8 C 2,2 C 95 % 1011,3 hPa 0,0 l/m 0 min 0 min 0 W/m 0,0 km/h (0 Bft) 93,62 %
07.03.2020 01:06 2,9 C 2,8 C 2,2 C 95 % 1011,3 hPa 0,0 l/m 0 min 0 min 0 W/m 0,0 km/h (0 Bft) 95,74 %
07.03.2020 01:08 2,9 C 2,8 C 2,2 C 96 % 1011,3 hPa 0,0 l/m 0 min 0 min 0 W/m 0,0 km/h (0 Bft) 95,74 %
07.03.2020 01:10 3,0 C 2,8 C 2,2 C 96 % 1011,3 hPa 0,0 l/m 0 min 0 min 0 W/m 3,2 km/h (1 Bft) 95,74 %
07.03.2020 01:12 3,0 C 2,8 C 2,2 C 96 % 1011,4 hPa 0,0 l/m 0 min 0 min 0 W/m 0,0 km/h (0 Bft) 95,74 %
07.03.2020 01:14 3,1 C 2,8 C 2,2 C 96 % 1011,4 hPa 0,0 l/m 0 min 0 min 0 W/m 0,0 km/h (0 Bft) 93,48 %
07.03.2020 01:16 3,1 C 2,8 C 2,2 C 96 % 1011,4 hPa 0,0 l/m 0 min 0 min 0 W/m 0,0 km/h (0 Bft) 97,87 %
07.03.2020 01:18 3,1 C 2,8 C 2,2 C 96 % 1011,4 hPa 0,0 l/m 0 min 0 min 0 W/m 3,2 km/h (1 Bft) 95,74 %
07.03.2020 01:20 3,1 C 2,8 C 2,2 C 96 % 1011,4 hPa 0,0 l/m 0 min 0 min 0 W/m 6,4 km/h (2 Bft) 97,87 %
07.03.2020 01:22 3,2 C 2,8 C 2,2 C 96 % 1011,5 hPa 0,0 l/m 0 min 0 min 0 W/m 6,4 km/h (2 Bft) 95,74 %
07.03.2020 01:24 3,2 C 2,8 C 2,2 C 96 % 1011,5 hPa 0,0 l/m 0 min 0 min 0 W/m 3,2 km/h (1 Bft) 97,87 %
07.03.2020 01:26 3,2 C 2,8 C 2,2 C 96 % 1011,5 hPa 0,0 l/m 0 min 0 min 0 W/m 3,2 km/h (1 Bft) 95,65 %
07.03.2020 01:28 3,3 C 2,8 C 2,2 C 96 % 1011,6 hPa 0,0 l/m 0 min 0 min 0 W/m 6,4 km/h (2 Bft) 95,74 %
07.03.2020 01:30 3,3 C 2,8 C 2,2 C 96 % 1011,6 hPa 0,0 l/m 0 min 0 min 0 W/m 0,0 km/h (0 Bft) 97,87 %
07.03.2020 01:32 3,3 C 2,8 C 2,2 C 96 % 1011,7 hPa 0,0 l/m 0 min 0 min 0 W/m 3,2 km/h (1 Bft) 100,00 %
07.03.2020 01:34 3,3 C 2,8 C 2,2 C 96 % 1011,7 hPa 0,0 l/m 0 min 0 min 0 W/m 0,0 km/h (0 Bft) 100,00 %
07.03.2020 01:36 3,3 C 2,8 C 2,2 C 96 % 1011,8 hPa 0,0 l/m 0 min 0 min 0 W/m 0,0 km/h (0 Bft) 97,87 %
07.03.2020 01:38 3,3 C 2,8 C 2,2 C 96 % 1011,8 hPa 0,0 l/m 0 min 0 min 0 W/m 9,7 km/h (2 Bft) 100,00 %
07.03.2020 01:40 3,3 C 2,8 C 2,2 C 96 % 1011,8 hPa 0,0 l/m 0 min 0 min 0 W/m 0,0 km/h (0 Bft) 100,00 %
07.03.2020 01:42 3,3 C 2,8 C 2,2 C 96 % 1011,8 hPa 0,0 l/m 0 min 0 min 0 W/m 3,2 km/h (1 Bft) 100,00 %
07.03.2020 01:44 3,3 C 2,8 C 2,2 C 96 % 1011,9 hPa 0,0 l/m 0 min 0 min 0 W/m 0,0 km/h (0 Bft) 100,00 %
07.03.2020 01:46 3,3 C 2,8 C 2,2 C 96 % 1011,9 hPa 0,0 l/m 0 min 0 min 0 W/m 6,4 km/h (2 Bft) 100,00 %
07.03.2020 01:48 3,4 C 2,8 C 2,2 C 96 % 1012,0 hPa 0,0 l/m 0 min 0 min 0 W/m 6,4 km/h (2 Bft) 100,00 %
07.03.2020 01:50 3,4 C 2,8 C 2,2 C 96 % 1012,0 hPa 0,0 l/m 0 min 0 min 0 W/m 0,0 km/h (0 Bft) 100,00 %
07.03.2020 01:52 3,4 C 2,8 C 2,2 C 96 % 1012,0 hPa 0,0 l/m 0 min 0 min 0 W/m 6,4 km/h (2 Bft) 100,00 %
07.03.2020 01:54 3,4 C 3,3 C 2,8 C 96 % 1012,0 hPa 0,0 l/m 0 min 0 min 0 W/m 6,4 km/h (2 Bft) 100,00 %
07.03.2020 01:56 3,4 C 3,3 C 2,8 C 96 % 1012,1 hPa 0,0 l/m 0 min 0 min 0 W/m 3,2 km/h (1 Bft) 100,00 %
07.03.2020 01:58 3,4 C 3,3 C 2,8 C 96 % 1012,1 hPa 0,0 l/m 0 min 0 min 0 W/m 0,0 km/h (0 Bft) 100,00 %
07.03.2020 02:00 3,4 C 3,3 C 2,8 C 96 % 1012,1 hPa 0,0 l/m 0 min 0 min 0 W/m 0,0 km/h (0 Bft) 100,00 %
07.03.2020 02:02 3,5 C 3,3 C 2,8 C 96 % 1012,1 hPa 0,0 l/m 0 min 0 min 0 W/m 0,0 km/h (0 Bft) 100,00 %
07.03.2020 02:04 3,5 C 3,3 C 2,8 C 96 % 1012,1 hPa 0,0 l/m 0 min 0 min 0 W/m 0,0 km/h (0 Bft) 100,00 %
07.03.2020 02:06 3,5 C 3,3 C 2,8 C 96 % 1012,1 hPa 0,0 l/m 0 min 0 min 0 W/m 0,0 km/h (0 Bft) 100,00 %
07.03.2020 02:08 3,5 C 3,3 C 2,8 C 96 % 1012,2 hPa 0,0 l/m 0 min 0 min 0 W/m 3,2 km/h (1 Bft) 100,00 %
07.03.2020 02:10 3,5 C 3,3 C 2,8 C 96 % 1012,2 hPa 0,0 l/m 0 min 0 min 0 W/m 3,2 km/h (1 Bft) 100,00 %
07.03.2020 02:12 3,5 C 3,3 C 2,8 C 96 % 1012,2 hPa 0,0 l/m 0 min 0 min 0 W/m 0,0 km/h (0 Bft) 100,00 %
07.03.2020 02:14 3,5 C 3,3 C 2,8 C 96 % 1012,2 hPa 0,0 l/m 0 min 0 min 0 W/m 6,4 km/h (2 Bft) 100,00 %
07.03.2020 02:16 3,5 C 3,3 C 2,8 C 96 % 1012,2 hPa 0,0 l/m 0 min 0 min 0 W/m 3,2 km/h (1 Bft) 100,00 %
07.03.2020 02:18 3,5 C 2,8 C 2,2 C 96 % 1012,2 hPa 0,0 l/m 0 min 0 min 0 W/m 0,0 km/h (0 Bft) 100,00 %
07.03.2020 02:20 3,5 C 2,8 C 2,2 C 96 % 1012,2 hPa 0,0 l/m 0 min 0 min 0 W/m 0,0 km/h (0 Bft) 100,00 %
07.03.2020 02:22 3,5 C 2,8 C 2,2 C 96 % 1012,3 hPa 0,0 l/m 0 min 0 min 0 W/m 0,0 km/h (0 Bft) 100,00 %
07.03.2020 02:24 3,4 C 2,8 C 2,2 C 96 % 1012,3 hPa 0,0 l/m 0 min 0 min 0 W/m 6,4 km/h (2 Bft) 100,00 %
07.03.2020 02:26 3,4 C 2,8 C 2,2 C 96 % 1012,3 hPa 0,0 l/m 0 min 0 min 0 W/m 0,0 km/h (0 Bft) 100,00 %
07.03.2020 02:28 3,4 C 2,8 C 2,2 C 96 % 1012,4 hPa 0,0 l/m 0 min 0 min 0 W/m 3,2 km/h (1 Bft) 100,00 %
07.03.2020 02:30 3,4 C 3,3 C 2,2 C 96 % 1012,4 hPa 0,0 l/m 0 min 0 min 0 W/m 3,2 km/h (1 Bft) 100,00 %
07.03.2020 02:32 3,4 C 3,3 C 2,8 C 96 % 1012,4 hPa 0,0 l/m 0 min 0 min 0 W/m 0,0 km/h (0 Bft) 100,00 %
07.03.2020 02:34 3,4 C 3,3 C 2,8 C 96 % 1012,4 hPa 0,0 l/m 0 min 0 min 0 W/m 0,0 km/h (0 Bft) 100,00 %
07.03.2020 02:36 3,4 C 3,3 C 2,8 C 96 % 1012,4 hPa 0,0 l/m 0 min 0 min 0 W/m 0,0 km/h (0 Bft) 100,00 %
07.03.2020 02:38 3,4 C 3,3 C 2,8 C 96 % 1012,4 hPa 0,0 l/m 0 min 0 min 0 W/m 0,0 km/h (0 Bft) 100,00 %
07.03.2020 02:40 3,5 C 3,3 C 2,8 C 96 % 1012,4 hPa 0,0 l/m 0 min 0 min 0 W/m 0,0 km/h (0 Bft) 100,00 %
07.03.2020 02:42 3,5 C 3,3 C 2,8 C 96 % 1012,5 hPa 0,0 l/m 0 min 0 min 0 W/m 0,0 km/h (0 Bft) 97,87 %
07.03.2020 02:44 3,5 C 3,3 C 2,8 C 96 % 1012,5 hPa 0,0 l/m 0 min 0 min 0 W/m 0,0 km/h (0 Bft) 97,83 %
07.03.2020 02:46 3,5 C 3,3 C 2,8 C 95 % 1012,5 hPa 0,0 l/m 0 min 0 min 0 W/m 0,0 km/h (0 Bft) 97,87 %
07.03.2020 02:48 3,5 C 3,3 C 2,8 C 95 % 1012,6 hPa 0,0 l/m 0 min 0 min 0 W/m 0,0 km/h (0 Bft) 100,00 %
07.03.2020 02:50 3,6 C 3,3 C 2,8 C 95 % 1012,6 hPa 0,0 l/m 0 min 0 min 0 W/m 0,0 km/h (0 Bft) 97,87 %
07.03.2020 02:52 3,6 C 3,3 C 2,8 C 95 % 1012,6 hPa 0,0 l/m 0 min 0 min 0 W/m 0,0 km/h (0 Bft) 97,87 %
07.03.2020 02:54 3,6 C 3,3 C 2,8 C 95 % 1012,7 hPa 0,0 l/m 0 min 0 min 0 W/m 0,0 km/h (0 Bft) 97,87 %
07.03.2020 02:56 3,6 C 3,3 C 2,8 C 95 % 1012,7 hPa 0,0 l/m 0 min 0 min 0 W/m 0,0 km/h (0 Bft) 97,83 %
07.03.2020 02:58 3,6 C 3,3 C 2,8 C 95 % 1012,7 hPa 0,0 l/m 0 min 0 min 0 W/m 0,0 km/h (0 Bft) 95,74 %
07.03.2020 03:00 3,6 C 3,3 C 2,8 C 95 % 1012,8 hPa 0,0 l/m 0 min 0 min 0 W/m 0,0 km/h (0 Bft) 97,87 %
07.03.2020 03:02 3,6 C 3,3 C 2,8 C 95 % 1012,7 hPa 0,0 l/m 0 min 0 min 0 W/m 0,0 km/h (0 Bft) 97,87 %
07.03.2020 03:04 3,6 C 3,3 C 2,8 C 95 % 1012,8 hPa 0,0 l/m 0 min 0 min 0 W/m 0,0 km/h (0 Bft) 97,87 %
07.03.2020 03:06 3,6 C 3,3 C 2,8 C 95 % 1012,8 hPa 0,0 l/m 0 min 0 min 0 W/m 0,0 km/h (0 Bft) 97,87 %
07.03.2020 03:08 3,6 C 3,3 C 2,8 C 95 % 1012,8 hPa 0,0 l/m 0 min 0 min 0 W/m 0,0 km/h (0 Bft) 97,83 %
07.03.2020 03:10 3,7 C 3,3 C 2,8 C 95 % 1012,8 hPa 0,0 l/m 0 min 0 min 0 W/m 0,0 km/h (0 Bft) 97,87 %
07.03.2020 03:12 3,7 C 2,8 C 2,8 C 95 % 1012,9 hPa 0,0 l/m 0 min 0 min 0 W/m 3,2 km/h (1 Bft) 95,74 %
07.03.2020 03:14 3,7 C 2,8 C 2,2 C 95 % 1012,9 hPa 0,0 l/m 0 min 0 min 0 W/m 0,0 km/h (0 Bft) 97,87 %
07.03.2020 03:16 3,7 C 2,8 C 2,2 C 95 % 1012,9 hPa 0,0 l/m 0 min 0 min 0 W/m 6,4 km/h (2 Bft) 97,87 %
07.03.2020 03:18 3,6 C 2,8 C 2,2 C 95 % 1012,9 hPa 0,0 l/m 0 min 0 min 0 W/m 0,0 km/h (0 Bft) 95,74 %
07.03.2020 03:20 3,6 C 2,8 C 2,2 C 95 % 1013,0 hPa 0,0 l/m 0 min 0 min 0 W/m 0,0 km/h (0 Bft) 93,48 %
07.03.2020 03:22 3,6 C 2,8 C 2,2 C 95 % 1013,0 hPa 0,0 l/m 0 min 0 min 0 W/m 0,0 km/h (0 Bft) 89,36 %
07.03.2020 03:24 3,6 C 2,8 C 2,2 C 94 % 1013,0 hPa 0,0 l/m 0 min 0 min 0 W/m 3,2 km/h (1 Bft) 93,62 %
07.03.2020 03:26 3,6 C 2,8 C 2,2 C 94 % 1013,1 hPa 0,0 l/m 0 min 0 min 0 W/m 6,4 km/h (2 Bft) 93,62 %
07.03.2020 03:28 3,6 C 2,8 C 2,2 C 94 % 1013,1 hPa 0,0 l/m 0 min 0 min 0 W/m 0,0 km/h (0 Bft) 93,75 %
07.03.2020 03:30 3,5 C 2,8 C 2,2 C 94 % 1013,1 hPa 0,0 l/m 0 min 0 min 0 W/m 6,4 km/h (2 Bft) 95,74 %
07.03.2020 03:32 3,5 C 2,8 C 2,2 C 94 % 1013,1 hPa 0,0 l/m 0 min 0 min 0 W/m 0,0 km/h (0 Bft) 93,75 %
07.03.2020 03:34 3,4 C 2,8 C 2,2 C 94 % 1013,1 hPa 0,0 l/m 0 min 0 min 0 W/m 0,0 km/h (0 Bft) 95,65 %
07.03.2020 03:36 3,4 C 2,8 C 2,2 C 94 % 1013,2 hPa 0,0 l/m 0 min 0 min 0 W/m 3,2 km/h (1 Bft) 93,62 %
07.03.2020 03:38 3,4 C 2,8 C 2,2 C 94 % 1013,2 hPa 0,0 l/m 0 min 0 min 0 W/m 0,0 km/h (0 Bft) 95,74 %
07.03.2020 03:40 3,4 C 2,8 C 2,2 C 94 % 1013,2 hPa 0,0 l/m 0 min 0 min 0 W/m 0,0 km/h (0 Bft) 95,74 %
07.03.2020 03:42 3,4 C 2,8 C 2,2 C 94 % 1013,3 hPa 0,0 l/m 0 min 0 min 0 W/m 0,0 km/h (0 Bft) 95,74 %
07.03.2020 03:44 3,4 C 2,8 C 2,2 C 94 % 1013,3 hPa 0,0 l/m 0 min 0 min 0 W/m 0,0 km/h (0 Bft) 95,65 %
07.03.2020 03:46 3,4 C 2,8 C 2,2 C 94 % 1013,3 hPa 0,0 l/m 0 min 0 min 0 W/m 3,2 km/h (1 Bft) 95,74 %
07.03.2020 03:48 3,4 C 2,8 C 2,2 C 94 % 1013,4 hPa 0,0 l/m 0 min 0 min 0 W/m 0,0 km/h (0 Bft) 95,74 %
07.03.2020 03:50 3,4 C 2,8 C 2,2 C 94 % 1013,4 hPa 0,0 l/m 0 min 0 min 0 W/m 0,0 km/h (0 Bft) 95,74 %
07.03.2020 03:52 3,4 C 2,8 C 2,2 C 94 % 1013,4 hPa 0,0 l/m 0 min 0 min 0 W/m 0,0 km/h (0 Bft) 93,62 %
07.03.2020 03:54 3,4 C 2,8 C 2,2 C 94 % 1013,4 hPa 0,0 l/m 0 min 0 min 0 W/m 0,0 km/h (0 Bft) 95,74 %
07.03.2020 03:56 3,4 C 2,8 C 2,2 C 94 % 1013,3 hPa 0,0 l/m 0 min 0 min 0 W/m 0,0 km/h (0 Bft) 95,65 %
07.03.2020 03:58 3,4 C 2,8 C 2,2 C 94 % 1013,4 hPa 0,0 l/m 0 min 0 min 0 W/m 0,0 km/h (0 Bft) 93,02 %
07.03.2020 04:00 3,4 C 2,8 C 2,2 C 94 % 1013,4 hPa 0,0 l/m 0 min 0 min 0 W/m 0,0 km/h (0 Bft) 95,74 %
07.03.2020 04:02 3,4 C 2,8 C 2,2 C 94 % 1013,4 hPa 0,0 l/m 0 min 0 min 0 W/m 0,0 km/h (0 Bft) 100,00 %
07.03.2020 04:04 3,4 C 2,8 C 2,2 C 94 % 1013,5 hPa 0,0 l/m 0 min 0 min 0 W/m 0,0 km/h (0 Bft) 95,74 %
07.03.2020 04:06 3,4 C 2,8 C 2,2 C 94 % 1013,5 hPa 0,0 l/m 0 min 0 min 0 W/m 0,0 km/h (0 Bft) 95,65 %
07.03.2020 04:08 3,4 C 2,8 C 2,2 C 94 % 1013,6 hPa 0,0 l/m 0 min 0 min 0 W/m 0,0 km/h (0 Bft) 95,74 %
07.03.2020 04:10 3,3 C 2,2 C 2,2 C 94 % 1013,6 hPa 0,0 l/m 0 min 0 min 0 W/m 0,0 km/h (0 Bft) 95,24 %
07.03.2020 04:12 3,3 C 2,2 C 1,7 C 94 % 1013,6 hPa 0,0 l/m 0 min 0 min 0 W/m 0,0 km/h (0 Bft) 97,87 %
07.03.2020 04:14 3,3 C 2,2 C 1,7 C 94 % 1013,6 hPa 0,0 l/m 0 min 0 min 0 W/m 0,0 km/h (0 Bft) 97,87 %
07.03.2020 04:16 3,3 C 2,2 C 1,7 C 94 % 1013,7 hPa 0,0 l/m 0 min 0 min 0 W/m 0,0 km/h (0 Bft) 95,83 %
07.03.2020 04:18 3,3 C 2,2 C 1,7 C 94 % 1013,7 hPa 0,0 l/m 0 min 0 min 0 W/m 0,0 km/h (0 Bft) 97,87 %
07.03.2020 04:20 3,3 C 2,2 C 1,7 C 93 % 1013,7 hPa 0,0 l/m 0 min 0 min 0 W/m 0,0 km/h (0 Bft) 100,00 %
07.03.2020 04:22 3,2 C 1,7 C 1,7 C 93 % 1013,7 hPa 0,0 l/m 0 min 0 min 0 W/m 0,0 km/h (0 Bft) 100,00 %
07.03.2020 04:24 3,2 C 1,7 C 1,7 C 93 % 1013,7 hPa 0,0 l/m 0 min 0 min 0 W/m 0,0 km/h (0 Bft) 100,00 %
07.03.2020 04:26 3,2 C 1,7 C 1,1 C 93 % 1013,8 hPa 0,0 l/m 0 min 0 min 0 W/m 0,0 km/h (0 Bft) 100,00 %
07.03.2020 04:28 3,2 C 1,7 C 1,1 C 93 % 1013,8 hPa 0,0 l/m 0 min 0 min 0 W/m 0,0 km/h (0 Bft) 100,00 %
07.03.2020 04:30 3,1 C 1,7 C 1,1 C 93 % 1013,9 hPa 0,0 l/m 0 min 0 min 0 W/m 0,0 km/h (0 Bft) 100,00 %
07.03.2020 04:32 3,1 C 1,7 C 1,1 C 93 % 1013,9 hPa 0,0 l/m 0 min 0 min 0 W/m 0,0 km/h (0 Bft) 100,00 %
07.03.2020 04:34 3,1 C 1,7 C 1,1 C 93 % 1013,9 hPa 0,0 l/m 0 min 0 min 0 W/m 0,0 km/h (0 Bft) 100,00 %
07.03.2020 04:36 3,0 C 1,1 C 1,1 C 93 % 1013,9 hPa 0,0 l/m 0 min 0 min 0 W/m 0,0 km/h (0 Bft) 97,87 %
07.03.2020 04:38 2,9 C 1,1 C 1,1 C 93 % 1013,9 hPa 0,0 l/m 0 min 0 min 0 W/m 0,0 km/h (0 Bft) 100,00 %
07.03.2020 04:40 2,9 C 1,1 C 1,1 C 93 % 1014,0 hPa 0,0 l/m 0 min 0 min 0 W/m 0,0 km/h (0 Bft) 100,00 %
07.03.2020 04:42 2,9 C 1,1 C 1,1 C 93 % 1014,0 hPa 0,0 l/m 0 min 0 min 0 W/m 0,0 km/h (0 Bft) 100,00 %
07.03.2020 04:44 2,8 C 1,1 C 1,1 C 93 % 1014,1 hPa 0,0 l/m 0 min 0 min 0 W/m 0,0 km/h (0 Bft) 100,00 %
07.03.2020 04:46 2,8 C 1,1 C 0,6 C 93 % 1014,1 hPa 0,0 l/m 0 min 0 min 0 W/m 0,0 km/h (0 Bft) 100,00 %
07.03.2020 04:48 2,8 C 1,1 C 0,6 C 93 % 1014,1 hPa 0,0 l/m 0 min 0 min 0 W/m 0,0 km/h (0 Bft) 100,00 %
07.03.2020 04:50 2,7 C 1,1 C 0,6 C 93 % 1014,2 hPa 0,0 l/m 0 min 0 min 0 W/m 0,0 km/h (0 Bft) 100,00 %
07.03.2020 04:52 2,7 C 1,1 C 1,1 C 93 % 1014,1 hPa 0,0 l/m 0 min 0 min 0 W/m 0,0 km/h (0 Bft) 100,00 %
07.03.2020 04:54 2,7 C 1,1 C 1,1 C 93 % 1014,2 hPa 0,0 l/m 0 min 0 min 0 W/m 0,0 km/h (0 Bft) 100,00 %
07.03.2020 04:56 2,6 C 1,7 C 1,1 C 93 % 1014,2 hPa 0,0 l/m 0 min 0 min 0 W/m 0,0 km/h (0 Bft) 100,00 %
07.03.2020 04:58 2,6 C 1,7 C 1,1 C 93 % 1014,2 hPa 0,0 l/m 0 min 0 min 0 W/m 0,0 km/h (0 Bft) 100,00 %
07.03.2020 05:00 2,6 C 1,7 C 0,6 C 93 % 1014,2 hPa 0,0 l/m 0 min 0 min 0 W/m 0,0 km/h (0 Bft) 100,00 %
07.03.2020 05:02 2,6 C 1,1 C 0,6 C 93 % 1014,3 hPa 0,0 l/m 0 min 0 min 0 W/m 0,0 km/h (0 Bft) 95,74 %
07.03.2020 05:04 2,6 C 1,1 C 0,6 C 93 % 1014,3 hPa 0,0 l/m 0 min 0 min 0 W/m 0,0 km/h (0 Bft) 100,00 %
07.03.2020 05:06 2,5 C 1,1 C 0,6 C 93 % 1014,3 hPa 0,0 l/m 0 min 0 min 0 W/m 0,0 km/h (0 Bft) 97,87 %
07.03.2020 05:08 2,5 C 1,1 C 0,6 C 93 % 1014,3 hPa 0,0 l/m 0 min 0 min 0 W/m 0,0 km/h (0 Bft) 100,00 %
07.03.2020 05:10 2,5 C 1,1 C 0,6 C 93 % 1014,4 hPa 0,0 l/m 0 min 0 min 0 W/m 0,0 km/h (0 Bft) 100,00 %
07.03.2020 05:12 2,4 C 1,1 C 0,6 C 93 % 1014,4 hPa 0,0 l/m 0 min 0 min 0 W/m 0,0 km/h (0 Bft) 95,83 %
07.03.2020 05:14 2,4 C 1,1 C 0,6 C 93 % 1014,4 hPa 0,0 l/m 0 min 0 min 0 W/m 0,0 km/h (0 Bft) 97,83 %
07.03.2020 05:16 2,4 C 1,1 C 0,6 C 93 % 1014,4 hPa 0,0 l/m 0 min 0 min 0 W/m 0,0 km/h (0 Bft) 97,92 %
07.03.2020 05:18 2,4 C 1,1 C 0,6 C 93 % 1014,5 hPa 0,0 l/m 0 min 0 min 0 W/m 0,0 km/h (0 Bft) 95,83 %
07.03.2020 05:20 2,4 C 1,1 C 0,6 C 93 % 1014,5 hPa 0,0 l/m 0 min 0 min 0 W/m 0,0 km/h (0 Bft) 97,87 %
07.03.2020 05:22 2,4 C 1,1 C 0,6 C 93 % 1014,5 hPa 0,0 l/m 0 min 0 min 0 W/m 0,0 km/h (0 Bft) 97,87 %
07.03.2020 05:24 2,3 C 1,1 C 0,6 C 93 % 1014,6 hPa 0,0 l/m 0 min 0 min 0 W/m 0,0 km/h (0 Bft) 97,87 %
07.03.2020 05:26 2,3 C 1,1 C 0,6 C 93 % 1014,6 hPa 0,0 l/m 0 min 0 min 0 W/m 0,0 km/h (0 Bft) 97,87 %
07.03.2020 05:28 2,3 C 1,1 C 0,6 C 93 % 1014,6 hPa 0,0 l/m 0 min 0 min 0 W/m 0,0 km/h (0 Bft) 97,83 %
07.03.2020 05:30 2,3 C 1,1 C 0,6 C 93 % 1014,6 hPa 0,0 l/m 0 min 0 min 0 W/m 0,0 km/h (0 Bft) 97,87 %
07.03.2020 05:32 2,3 C 1,1 C 0,6 C 93 % 1014,7 hPa 0,0 l/m 0 min 0 min 0 W/m 0,0 km/h (0 Bft) 95,24 %
07.03.2020 05:34 2,3 C 1,1 C 0,6 C 93 % 1014,7 hPa 0,0 l/m 0 min 0 min 0 W/m 0,0 km/h (0 Bft) 97,92 %
07.03.2020 05:36 2,3 C 1,1 C 0,6 C 93 % 1014,7 hPa 0,0 l/m 0 min 0 min 0 W/m 0,0 km/h (0 Bft) 97,92 %
07.03.2020 05:38 2,2 C 1,1 C 0,0 C 93 % 1014,7 hPa 0,0 l/m 0 min 0 min 0 W/m 0,0 km/h (0 Bft) 97,87 %
07.03.2020 05:40 2,2 C 0,6 C 0,0 C 93 % 1014,8 hPa 0,0 l/m 0 min 0 min 0 W/m 0,0 km/h (0 Bft) 97,92 %
07.03.2020 05:42 2,2 C 0,6 C 0,0 C 93 % 1014,8 hPa 0,0 l/m 0 min 0 min 0 W/m 0,0 km/h (0 Bft) 93,75 %
07.03.2020 05:44 2,2 C 0,6 C 0,0 C 93 % 1014,8 hPa 0,0 l/m 0 min 0 min 0 W/m 0,0 km/h (0 Bft) 100,00 %
07.03.2020 05:46 2,2 C 0,6 C 0,0 C 93 % 1014,9 hPa 0,0 l/m 0 min 0 min 0 W/m 0,0 km/h (0 Bft) 100,00 %
07.03.2020 05:48 2,2 C 0,6 C 0,0 C 94 % 1014,9 hPa 0,0 l/m 0 min 0 min 0 W/m 0,0 km/h (0 Bft) 100,00 %
07.03.2020 05:50 2,1 C 0,6 C 0,0 C 94 % 1014,9 hPa 0,0 l/m 0 min 0 min 0 W/m 0,0 km/h (0 Bft) 100,00 %
07.03.2020 05:52 2,1 C 0,6 C 0,0 C 94 % 1014,9 hPa 0,0 l/m 0 min 0 min 0 W/m 0,0 km/h (0 Bft) 100,00 %
07.03.2020 05:54 2,1 C 0,6 C -0,6 C 94 % 1014,9 hPa 0,0 l/m 0 min 0 min 0 W/m 0,0 km/h (0 Bft) 100,00 %
07.03.2020 05:56 2,1 C 0,6 C -0,6 C 94 % 1014,9 hPa 0,0 l/m 0 min 0 min 0 W/m 0,0 km/h (0 Bft) 100,00 %
07.03.2020 05:58 2,1 C 0,6 C -0,6 C 94 % 1015,0 hPa 0,0 l/m 0 min 0 min 0 W/m 0,0 km/h (0 Bft) 97,87 %
07.03.2020 06:00 2,0 C 0,6 C -0,6 C 94 % 1015,0 hPa 0,0 l/m 0 min 0 min 0 W/m 0,0 km/h (0 Bft) 100,00 %
07.03.2020 06:02 2,0 C 1,1 C 0,0 C 94 % 1015,0 hPa 0,0 l/m 0 min 0 min 0 W/m 0,0 km/h (0 Bft) 100,00 %
07.03.2020 06:04 2,0 C 1,1 C 0,0 C 94 % 1015,1 hPa 0,0 l/m 0 min 0 min 0 W/m 0,0 km/h (0 Bft) 100,00 %
07.03.2020 06:08 1,9 C 0,6 C -0,6 C 94 % 1015,1 hPa 0,0 l/m 0 min 0 min 0 W/m 0,0 km/h (0 Bft) 98,96 %
07.03.2020 06:10 1,9 C 0,6 C -0,6 C 94 % 1015,1 hPa 0,0 l/m 0 min 0 min 0 W/m 0,0 km/h (0 Bft) 100,00 %
07.03.2020 06:12 1,9 C 0,6 C -0,6 C 94 % 1015,1 hPa 0,0 l/m 0 min 0 min 0 W/m 0,0 km/h (0 Bft) 97,87 %
07.03.2020 06:14 1,9 C 0,6 C -0,6 C 94 % 1015,1 hPa 0,0 l/m 0 min 0 min 0 W/m 0,0 km/h (0 Bft) 97,87 %
07.03.2020 06:16 1,8 C 0,6 C -0,6 C 94 % 1015,2 hPa 0,0 l/m 0 min 0 min 0 W/m 0,0 km/h (0 Bft) 97,87 %
07.03.2020 06:18 1,8 C 0,6 C -0,6 C 94 % 1015,2 hPa 0,0 l/m 0 min 0 min 0 W/m 0,0 km/h (0 Bft) 97,87 %
07.03.2020 06:20 1,8 C 0,6 C -0,6 C 94 % 1015,2 hPa 0,0 l/m 0 min 0 min 0 W/m 0,0 km/h (0 Bft) 97,87 %
07.03.2020 06:22 1,8 C 0,6 C -0,6 C 94 % 1015,2 hPa 0,0 l/m 0 min 0 min 0 W/m 0,0 km/h (0 Bft) 95,74 %
07.03.2020 06:24 1,8 C 0,6 C -0,6 C 94 % 1015,2 hPa 0,0 l/m 0 min 0 min 0 W/m 0,0 km/h (0 Bft) 97,87 %
07.03.2020 06:26 1,8 C 0,6 C -0,6 C 94 % 1015,3 hPa 0,0 l/m 0 min 0 min 0 W/m 0,0 km/h (0 Bft) 97,83 %
07.03.2020 06:28 1,7 C 0,6 C -0,6 C 94 % 1015,2 hPa 0,0 l/m 0 min 0 min 0 W/m 0,0 km/h (0 Bft) 95,74 %
07.03.2020 06:30 1,7 C 0,6 C -0,6 C 94 % 1015,3 hPa 0,0 l/m 0 min 0 min 0 W/m 0,0 km/h (0 Bft) 97,87 %
07.03.2020 06:32 1,7 C 0,6 C -0,6 C 94 % 1015,3 hPa 0,0 l/m 0 min 0 min 0 W/m 0,0 km/h (0 Bft) 97,62 %
07.03.2020 06:34 1,7 C 0,6 C -0,6 C 94 % 1015,3 hPa 0,0 l/m 0 min 0 min 0 W/m 0,0 km/h (0 Bft) 97,87 %
07.03.2020 06:36 1,7 C 0,6 C -0,6 C 94 % 1015,3 hPa 0,0 l/m 0 min 0 min 0 W/m 0,0 km/h (0 Bft) 57,45 %
07.03.2020 06:38 1,6 C 0,0 C -0,6 C 94 % 1015,4 hPa 0,0 l/m 0 min 0 min 0 W/m 0,0 km/h (0 Bft) 96,88 %
07.03.2020 06:40 1,6 C 0,0 C -0,6 C 94 % 1015,4 hPa 0,0 l/m 0 min 0 min 0 W/m 0,0 km/h (0 Bft) 97,92 %
07.03.2020 06:42 1,6 C 0,0 C -0,6 C 94 % 1015,4 hPa 0,0 l/m 0 min 0 min 0 W/m 0,0 km/h (0 Bft) 95,83 %
07.03.2020 06:44 1,6 C 0,0 C -1,1 C 94 % 1015,4 hPa 0,0 l/m 0 min 0 min 0 W/m 0,0 km/h (0 Bft) 97,87 %
07.03.2020 06:46 1,6 C 0,0 C -0,6 C 94 % 1015,4 hPa 0,0 l/m 0 min 0 min 0 W/m 0,0 km/h (0 Bft) 95,74 %
07.03.2020 06:48 1,6 C 0,0 C -0,6 C 94 % 1015,4 hPa 0,0 l/m 0 min 0 min 0 W/m 0,0 km/h (0 Bft) 97,87 %
07.03.2020 06:50 1,6 C 0,6 C -0,6 C 94 % 1015,4 hPa 0,0 l/m 0 min 0 min 0 W/m 0,0 km/h (0 Bft) 97,87 %
07.03.2020 06:52 1,5 C 0,6 C -0,6 C 94 % 1015,5 hPa 0,0 l/m 0 min 0 min 0 W/m 0,0 km/h (0 Bft) 97,87 %
07.03.2020 06:54 1,5 C 0,6 C -0,6 C 94 % 1015,5 hPa 0,0 l/m 0 min 0 min 0 W/m 0,0 km/h (0 Bft) 97,87 %
07.03.2020 06:56 1,4 C 0,6 C -0,6 C 94 % 1015,5 hPa 0,0 l/m 0 min 0 min 0 W/m 0,0 km/h (0 Bft) 97,87 %
07.03.2020 06:58 1,4 C 0,6 C 0,0 C 94 % 1015,5 hPa 0,0 l/m 0 min 0 min 0 W/m 0,0 km/h (0 Bft) 95,74 %
07.03.2020 07:00 1,4 C 0,6 C 0,0 C 94 % 1015,6 hPa 0,0 l/m 0 min 0 min 0 W/m 0,0 km/h (0 Bft) 95,65 %
07.03.2020 07:02 1,4 C 0,6 C -0,6 C 94 % 1015,7 hPa 0,0 l/m 0 min 0 min 0 W/m 0,0 km/h (0 Bft) 95,24 %
07.03.2020 07:04 1,4 C 0,6 C -0,6 C 95 % 1015,7 hPa 0,0 l/m 0 min 0 min 0 W/m 0,0 km/h (0 Bft) 100,00 %
07.03.2020 07:06 1,4 C 0,6 C 0,0 C 95 % 1015,7 hPa 0,0 l/m 0 min 0 min 0 W/m 0,0 km/h (0 Bft) 100,00 %
07.03.2020 07:08 1,4 C 0,6 C -0,6 C 95 % 1015,8 hPa 0,0 l/m 0 min 0 min 3 W/m 0,0 km/h (0 Bft) 100,00 %
07.03.2020 07:10 1,4 C 0,6 C -0,6 C 95 % 1015,8 hPa 0,0 l/m 0 min 0 min 5 W/m 0,0 km/h (0 Bft) 97,83 %
07.03.2020 07:12 1,4 C 0,6 C 0,0 C 95 % 1015,8 hPa 0,0 l/m 0 min 0 min 7 W/m 0,0 km/h (0 Bft) 97,92 %
07.03.2020 07:14 1,4 C 0,6 C 0,0 C 95 % 1015,9 hPa 0,0 l/m 0 min 0 min 8 W/m 0,0 km/h (0 Bft) 95,74 %
07.03.2020 07:16 1,4 C 0,6 C 0,0 C 95 % 1015,9 hPa 0,0 l/m 0 min 0 min 9 W/m 0,0 km/h (0 Bft) 93,75 %
07.03.2020 07:18 1,4 C 0,6 C 0,0 C 95 % 1016,0 hPa 0,0 l/m 0 min 0 min 11 W/m 0,0 km/h (0 Bft) 93,62 %
07.03.2020 07:20 1,4 C 1,1 C 0,0 C 95 % 1016,1 hPa 0,0 l/m 0 min 0 min 12 W/m 0,0 km/h (0 Bft) 95,83 %
07.03.2020 07:22 1,4 C 1,1 C 0,6 C 95 % 1016,2 hPa 0,0 l/m 0 min 0 min 12 W/m 0,0 km/h (0 Bft) 53,33 %
07.03.2020 07:24 1,4 C 1,1 C 0,6 C 95 % 1016,2 hPa 0,0 l/m 0 min 0 min 14 W/m 0,0 km/h (0 Bft) 93,62 %
07.03.2020 07:26 1,4 C 1,1 C 0,6 C 95 % 1016,2 hPa 0,0 l/m 0 min 0 min 16 W/m 0,0 km/h (0 Bft) 93,62 %
07.03.2020 07:28 1,5 C 1,1 C 0,6 C 95 % 1016,3 hPa 0,0 l/m 0 min 0 min 18 W/m 3,2 km/h (1 Bft) 95,74 %
07.03.2020 07:30 1,5 C 1,7 C 1,1 C 95 % 1016,3 hPa 0,0 l/m 0 min 0 min 20 W/m 3,2 km/h (1 Bft) 95,74 %
07.03.2020 07:32 1,6 C 1,7 C 1,1 C 95 % 1016,4 hPa 0,0 l/m 0 min 0 min 21 W/m 0,0 km/h (0 Bft) 95,74 %
07.03.2020 07:34 1,6 C 1,7 C 1,1 C 95 % 1016,4 hPa 0,0 l/m 0 min 0 min 23 W/m 0,0 km/h (0 Bft) 93,62 %
07.03.2020 07:36 1,6 C 1,7 C 1,1 C 96 % 1016,4 hPa 0,0 l/m 0 min 0 min 25 W/m 0,0 km/h (0 Bft) 93,48 %
07.03.2020 07:38 1,7 C 2,2 C 1,1 C 96 % 1016,4 hPa 0,0 l/m 0 min 0 min 26 W/m 0,0 km/h (0 Bft) 95,74 %
07.03.2020 07:40 1,7 C 2,2 C 1,7 C 96 % 1016,5 hPa 0,0 l/m 0 min 0 min 28 W/m 0,0 km/h (0 Bft) 95,74 %
07.03.2020 07:42 1,8 C 2,2 C 1,7 C 96 % 1016,5 hPa 0,0 l/m 0 min 0 min 28 W/m 0,0 km/h (0 Bft) 95,35 %
07.03.2020 07:44 1,9 C 2,2 C 1,7 C 96 % 1016,5 hPa 0,0 l/m 0 min 0 min 28 W/m 0,0 km/h (0 Bft) 95,74 %
07.03.2020 07:46 1,9 C 2,2 C 1,7 C 96 % 1016,6 hPa 0,0 l/m 0 min 0 min 27 W/m 0,0 km/h (0 Bft) 95,74 %
07.03.2020 07:48 2,0 C 2,2 C 1,7 C 96 % 1016,6 hPa 0,0 l/m 0 min 0 min 27 W/m 0,0 km/h (0 Bft) 93,75 %
07.03.2020 07:50 2,1 C 2,2 C 1,7 C 96 % 1016,7 hPa 0,0 l/m 0 min 0 min 28 W/m 0,0 km/h (0 Bft) 95,74 %
07.03.2020 07:52 2,1 C 2,2 C 1,7 C 96 % 1016,7 hPa 0,0 l/m 0 min 0 min 29 W/m 0,0 km/h (0 Bft) 95,83 %
07.03.2020 07:54 2,2 C 2,2 C 1,7 C 96 % 1016,8 hPa 0,0 l/m 0 min 0 min 30 W/m 0,0 km/h (0 Bft) 97,87 %
07.03.2020 07:56 2,2 C 2,8 C 2,2 C 96 % 1016,9 hPa 0,0 l/m 0 min 0 min 30 W/m 0,0 km/h (0 Bft) 97,87 %
07.03.2020 07:58 2,3 C 2,8 C 2,2 C 96 % 1016,9 hPa 0,0 l/m 0 min 0 min 30 W/m 0,0 km/h (0 Bft) 97,87 %
07.03.2020 08:00 2,3 C 2,8 C 2,2 C 96 % 1016,9 hPa 0,0 l/m 0 min 0 min 30 W/m 0,0 km/h (0 Bft) 97,87 %
07.03.2020 08:02 2,4 C 2,8 C 2,2 C 96 % 1016,9 hPa 0,0 l/m 0 min 0 min 32 W/m 0,0 km/h (0 Bft) 95,74 %
07.03.2020 08:04 2,5 C 2,8 C 2,2 C 96 % 1017,0 hPa 0,0 l/m 0 min 0 min 33 W/m 0,0 km/h (0 Bft) 97,87 %
07.03.2020 08:06 2,6 C 2,8 C 2,2 C 97 % 1017,0 hPa 0,0 l/m 0 min 0 min 35 W/m 0,0 km/h (0 Bft) 97,87 %
07.03.2020 08:08 2,6 C 2,8 C 2,2 C 97 % 1017,0 hPa 0,0 l/m 0 min 0 min 37 W/m 0,0 km/h (0 Bft) 97,87 %
07.03.2020 08:10 2,7 C 2,8 C 2,2 C 97 % 1017,1 hPa 0,0 l/m 0 min 0 min 41 W/m 0,0 km/h (0 Bft) 97,83 %
07.03.2020 08:12 2,7 C 2,8 C 2,2 C 97 % 1017,1 hPa 0,0 l/m 0 min 0 min 45 W/m 6,4 km/h (2 Bft) 97,62 %
07.03.2020 08:14 2,7 C 2,8 C 2,2 C 97 % 1017,1 hPa 0,0 l/m 0 min 0 min 47 W/m 0,0 km/h (0 Bft) 65,96 %
07.03.2020 08:16 2,8 C 2,8 C 2,2 C 97 % 1017,1 hPa 0,0 l/m 0 min 0 min 43 W/m 0,0 km/h (0 Bft) 91,11 %
07.03.2020 08:18 2,9 C 2,8 C 2,2 C 97 % 1017,2 hPa 0,0 l/m 0 min 0 min 37 W/m 3,2 km/h (1 Bft) 100,00 %
07.03.2020 08:20 2,9 C 2,8 C 2,2 C 97 % 1017,2 hPa 0,0 l/m 0 min 0 min 33 W/m 0,0 km/h (0 Bft) 100,00 %
07.03.2020 08:22 3,0 C 2,8 C 2,2 C 97 % 1017,2 hPa 0,0 l/m 0 min 0 min 36 W/m 9,7 km/h (2 Bft) 97,92 %
07.03.2020 08:24 3,0 C 2,8 C 2,2 C 97 % 1017,3 hPa 0,0 l/m 0 min 0 min 38 W/m 0,0 km/h (0 Bft) 100,00 %
07.03.2020 08:26 3,1 C 2,8 C 2,2 C 97 % 1017,3 hPa 0,0 l/m 0 min 0 min 38 W/m 0,0 km/h (0 Bft) 97,92 %
07.03.2020 08:28 3,1 C 2,8 C 2,2 C 97 % 1017,3 hPa 0,0 l/m 0 min 0 min 34 W/m 3,2 km/h (1 Bft) 100,00 %
07.03.2020 08:30 3,1 C 2,8 C 2,2 C 97 % 1017,3 hPa 0,0 l/m 0 min 0 min 32 W/m 0,0 km/h (0 Bft) 97,87 %
07.03.2020 08:32 3,1 C 2,8 C 2,2 C 97 % 1017,3 hPa 0,0 l/m 0 min 0 min 34 W/m 3,2 km/h (1 Bft) 100,00 %
07.03.2020 08:34 3,1 C 2,8 C 2,2 C 97 % 1017,4 hPa 0,0 l/m 0 min 0 min 41 W/m 0,0 km/h (0 Bft) 97,83 %
07.03.2020 08:36 3,1 C 2,8 C 2,2 C 97 % 1017,4 hPa 0,0 l/m 0 min 0 min 57 W/m 0,0 km/h (0 Bft) 100,00 %
07.03.2020 08:38 3,1 C 3,3 C 2,2 C 97 % 1017,4 hPa 0,0 l/m 0 min 0 min 60 W/m 0,0 km/h (0 Bft) 100,00 %
07.03.2020 08:40 3,1 C 3,3 C 2,2 C 97 % 1017,4 hPa 0,0 l/m 0 min 0 min 57 W/m 0,0 km/h (0 Bft) 100,00 %
07.03.2020 08:42 3,1 C 3,3 C 2,2 C 97 % 1017,4 hPa 0,0 l/m 0 min 0 min 52 W/m 3,2 km/h (1 Bft) 97,92 %
07.03.2020 08:44 3,1 C 3,3 C 2,2 C 97 % 1017,5 hPa 0,0 l/m 0 min 0 min 46 W/m 0,0 km/h (0 Bft) 100,00 %
07.03.2020 08:46 3,2 C 3,3 C 2,2 C 97 % 1017,5 hPa 0,0 l/m 0 min 0 min 50 W/m 0,0 km/h (0 Bft) 100,00 %
07.03.2020 08:48 3,2 C 3,3 C 2,2 C 97 % 1017,6 hPa 0,0 l/m 0 min 0 min 53 W/m 0,0 km/h (0 Bft) 97,92 %
07.03.2020 08:50 3,2 C 3,3 C 2,8 C 97 % 1017,5 hPa 0,0 l/m 0 min 0 min 54 W/m 0,0 km/h (0 Bft) 97,92 %
07.03.2020 08:52 3,2 C 3,3 C 2,8 C 97 % 1017,6 hPa 0,0 l/m 0 min 0 min 54 W/m 0,0 km/h (0 Bft) 95,83 %
07.03.2020 08:54 3,2 C 3,9 C 2,8 C 97 % 1017,6 hPa 0,0 l/m 0 min 0 min 57 W/m 0,0 km/h (0 Bft) 97,83 %
07.03.2020 08:56 3,3 C 3,9 C 2,8 C 97 % 1017,6 hPa 0,0 l/m 0 min 0 min 64 W/m 0,0 km/h (0 Bft) 97,92 %
07.03.2020 08:58 3,3 C 3,9 C 2,8 C 97 % 1017,6 hPa 0,0 l/m 0 min 0 min 77 W/m 0,0 km/h (0 Bft) 97,87 %
07.03.2020 09:00 3,3 C 4,4 C 2,8 C 97 % 1017,7 hPa 0,0 l/m 0 min 0 min 91 W/m 0,0 km/h (0 Bft) 95,74 %
07.03.2020 09:05 3,4 C 5,0 C 3,3 C 98 % 1017,7 hPa 0,0 l/m 0 min 0 min 103 W/m 3,2 km/h (1 Bft) 96,00 %
07.03.2020 09:06 3,5 C 5,0 C 3,3 C 98 % 1017,7 hPa 0,0 l/m 0 min 0 min 106 W/m 0,0 km/h (0 Bft) 91,67 %
07.03.2020 09:08 3,6 C 5,0 C 3,3 C 98 % 1017,7 hPa 0,0 l/m 0 min 0 min 115 W/m 3,2 km/h (1 Bft) 95,65 %
07.03.2020 09:10 3,6 C 5,0 C 3,3 C 98 % 1017,7 hPa 0,0 l/m 2 min 0 min 162 W/m 0,0 km/h (0 Bft) 95,74 %
07.03.2020 09:12 3,7 C 5,6 C 3,3 C 98 % 1017,7 hPa 0,0 l/m 2 min 0 min 157 W/m 3,2 km/h (1 Bft) 97,87 %
07.03.2020 09:14 3,7 C 7,2 C 3,3 C 98 % 1017,8 hPa 0,0 l/m 2 min 0 min 239 W/m 0,0 km/h (0 Bft) 97,87 %
07.03.2020 09:16 3,8 C 8,3 C 3,3 C 98 % 1017,8 hPa 0,0 l/m 2 min 0 min 277 W/m 0,0 km/h (0 Bft) 97,87 %
07.03.2020 09:18 3,8 C 9,4 C 3,3 C 98 % 1017,8 hPa 0,0 l/m 2 min 0 min 288 W/m 0,0 km/h (0 Bft) 97,83 %
07.03.2020 09:20 3,9 C 9,4 C 3,3 C 98 % 1017,8 hPa 0,0 l/m 2 min 0 min 300 W/m 0,0 km/h (0 Bft) 97,87 %
07.03.2020 09:22 4,0 C 10,0 C 3,3 C 98 % 1017,8 hPa 0,0 l/m 2 min 0 min 309 W/m 0,0 km/h (0 Bft) 97,87 %
07.03.2020 09:24 4,1 C 10,0 C 3,9 C 98 % 1017,8 hPa 0,0 l/m 2 min 0 min 317 W/m 0,0 km/h (0 Bft) 95,74 %
07.03.2020 09:26 4,2 C 10,6 C 3,9 C 98 % 1017,9 hPa 0,0 l/m 2 min 0 min 325 W/m 0,0 km/h (0 Bft) 97,87 %
07.03.2020 09:28 4,3 C 11,7 C 4,4 C 98 % 1017,9 hPa 0,0 l/m 2 min 0 min 354 W/m 0,0 km/h (0 Bft) 100,00 %
07.03.2020 09:30 4,4 C 11,1 C 6,1 C 98 % 1017,9 hPa 0,0 l/m 2 min 0 min 395 W/m 0,0 km/h (0 Bft) 100,00 %
07.03.2020 09:32 4,5 C 10,6 C 7,2 C 98 % 1018,0 hPa 0,0 l/m 2 min 0 min 311 W/m 0,0 km/h (0 Bft) 100,00 %
07.03.2020 09:34 4,7 C 9,4 C 7,2 C 98 % 1018,0 hPa 0,0 l/m 2 min 0 min 292 W/m 0,0 km/h (0 Bft) 97,87 %
07.03.2020 09:36 4,7 C 8,3 C 6,7 C 98 % 1018,1 hPa 0,0 l/m 2 min 0 min 240 W/m 3,2 km/h (1 Bft) 100,00 %
07.03.2020 09:38 4,8 C 7,8 C 5,6 C 98 % 1018,2 hPa 0,0 l/m 0 min 0 min 151 W/m 9,7 km/h (2 Bft) 100,00 %
07.03.2020 09:40 4,8 C 7,2 C 5,0 C 98 % 1018,1 hPa 0,0 l/m 0 min 0 min 134 W/m 6,4 km/h (2 Bft) 100,00 %
07.03.2020 09:42 4,8 C 7,2 C 5,0 C 98 % 1018,2 hPa 0,0 l/m 0 min 0 min 175 W/m 0,0 km/h (0 Bft) 100,00 %
07.03.2020 09:44 4,9 C 8,9 C 6,1 C 98 % 1018,2 hPa 0,0 l/m 2 min 0 min 257 W/m 3,2 km/h (1 Bft) 100,00 %
07.03.2020 09:46 5,0 C 11,1 C 6,7 C 98 % 1018,2 hPa 0,0 l/m 2 min 0 min 428 W/m 3,2 km/h (1 Bft) 97,87 %
07.03.2020 09:48 5,1 C 11,7 C 6,7 C 98 % 1018,2 hPa 0,0 l/m 2 min 0 min 362 W/m 6,4 km/h (2 Bft) 100,00 %
07.03.2020 09:50 5,1 C 11,1 C 6,7 C 98 % 1018,2 hPa 0,0 l/m 2 min 0 min 400 W/m 9,7 km/h (2 Bft) 95,74 %
07.03.2020 09:52 5,2 C 9,4 C 6,7 C 98 % 1018,3 hPa 0,0 l/m 0 min 0 min 185 W/m 9,7 km/h (2 Bft) 100,00 %
07.03.2020 09:54 5,3 C 10,0 C 6,7 C 98 % 1018,3 hPa 0,0 l/m 0 min 0 min 144 W/m 3,2 km/h (1 Bft) 97,83 %
07.03.2020 09:56 5,4 C 11,7 C 6,7 C 98 % 1018,4 hPa 0,0 l/m 2 min 0 min 275 W/m 3,2 km/h (1 Bft) 92,59 %
07.03.2020 09:58 5,4 C 12,2 C 5,6 C 98 % 1018,4 hPa 0,0 l/m 2 min 0 min 409 W/m 6,4 km/h (2 Bft) 100,00 %
07.03.2020 10:00 5,6 C 12,8 C 5,6 C 98 % 1018,4 hPa 0,0 l/m 2 min 0 min 410 W/m 0,0 km/h (0 Bft) 100,00 %
07.03.2020 10:02 5,7 C 12,8 C 5,6 C 98 % 1018,4 hPa 0,0 l/m 2 min 0 min 410 W/m 12,9 km/h (3 Bft) 100,00 %
07.03.2020 10:04 5,8 C 12,8 C 5,6 C 98 % 1018,4 hPa 0,0 l/m 2 min 0 min 419 W/m 3,2 km/h (1 Bft) 97,83 %
07.03.2020 10:06 5,9 C 12,8 C 5,6 C 98 % 1018,5 hPa 0,0 l/m 2 min 0 min 425 W/m 6,4 km/h (2 Bft) 100,00 %
07.03.2020 10:08 6,0 C 12,8 C 5,6 C 98 % 1018,5 hPa 0,0 l/m 2 min 0 min 438 W/m 12,9 km/h (3 Bft) 95,74 %
07.03.2020 10:10 6,1 C 12,8 C 5,6 C 98 % 1018,4 hPa 0,0 l/m 2 min 0 min 444 W/m 3,2 km/h (1 Bft) 95,74 %
07.03.2020 10:12 6,2 C 12,2 C 5,6 C 97 % 1018,4 hPa 0,0 l/m 2 min 0 min 455 W/m 6,4 km/h (2 Bft) 95,74 %
07.03.2020 10:14 6,3 C 11,7 C 6,1 C 97 % 1018,5 hPa 0,0 l/m 2 min 0 min 433 W/m 3,2 km/h (1 Bft) 95,74 %
07.03.2020 10:16 6,4 C 11,7 C 6,1 C 97 % 1018,5 hPa 0,0 l/m 2 min 0 min 302 W/m 0,0 km/h (0 Bft) 95,65 %
07.03.2020 10:18 6,5 C 11,7 C 6,1 C 97 % 1018,5 hPa 0,0 l/m 0 min 0 min 153 W/m 6,4 km/h (2 Bft) 97,87 %
07.03.2020 10:20 6,6 C 11,7 C 5,6 C 96 % 1018,5 hPa 0,0 l/m 0 min 0 min 123 W/m 6,4 km/h (2 Bft) 97,87 %
07.03.2020 10:22 6,7 C 11,7 C 5,6 C 96 % 1018,6 hPa 0,0 l/m 0 min 0 min 179 W/m 6,4 km/h (2 Bft) 97,87 %
07.03.2020 10:24 6,8 C 11,7 C 5,6 C 95 % 1018,6 hPa 0,0 l/m 2 min 0 min 439 W/m 9,7 km/h (2 Bft) 97,87 %
07.03.2020 10:26 6,8 C 12,2 C 5,6 C 95 % 1018,7 hPa 0,0 l/m 2 min 0 min 491 W/m 9,7 km/h (2 Bft) 97,87 %
07.03.2020 10:28 6,9 C 12,8 C 5,6 C 94 % 1018,7 hPa 0,0 l/m 2 min 0 min 486 W/m 9,7 km/h (2 Bft) 97,83 %
07.03.2020 10:30 7,0 C 12,2 C 6,1 C 94 % 1018,7 hPa 0,0 l/m 2 min 0 min 489 W/m 12,9 km/h (3 Bft) 97,87 %
07.03.2020 10:32 7,1 C 13,3 C 6,1 C 93 % 1018,7 hPa 0,0 l/m 2 min 0 min 492 W/m 6,4 km/h (2 Bft) 95,74 %
07.03.2020 10:34 7,2 C 12,8 C 6,1 C 92 % 1018,7 hPa 0,0 l/m 2 min 0 min 500 W/m 6,4 km/h (2 Bft) 97,87 %
07.03.2020 10:36 7,3 C 12,2 C 6,1 C 91 % 1018,7 hPa 0,0 l/m 2 min 0 min 491 W/m 9,7 km/h (2 Bft) 100,00 %
07.03.2020 10:38 7,4 C 10,6 C 6,1 C 91 % 1018,8 hPa 0,0 l/m 2 min 0 min 457 W/m 9,7 km/h (2 Bft) 100,00 %
07.03.2020 10:40 7,4 C 10,6 C 6,1 C 90 % 1018,8 hPa 0,0 l/m 2 min 0 min 457 W/m 12,9 km/h (3 Bft) 100,00 %
07.03.2020 10:42 7,4 C 12,2 C 6,1 C 89 % 1018,8 hPa 0,0 l/m 2 min 0 min 449 W/m 9,7 km/h (2 Bft) 100,00 %
07.03.2020 10:44 7,5 C 12,8 C 6,1 C 88 % 1018,8 hPa 0,0 l/m 2 min 0 min 476 W/m 9,7 km/h (2 Bft) 100,00 %
07.03.2020 10:46 7,6 C 13,3 C 6,7 C 87 % 1018,9 hPa 0,0 l/m 2 min 0 min 501 W/m 12,9 km/h (3 Bft) 97,87 %
07.03.2020 10:48 7,7 C 12,8 C 6,7 C 87 % 1018,8 hPa 0,0 l/m 2 min 0 min 622 W/m 12,9 km/h (3 Bft) 97,87 %
07.03.2020 10:50 7,8 C 10,0 C 6,7 C 87 % 1018,8 hPa 0,0 l/m 2 min 0 min 355 W/m 16,1 km/h (3 Bft) 95,74 %
07.03.2020 10:52 7,8 C 9,4 C 6,7 C 86 % 1018,8 hPa 0,0 l/m 0 min 0 min 170 W/m 12,9 km/h (3 Bft) 95,65 %
07.03.2020 10:54 7,8 C 11,7 C 7,2 C 85 % 1018,8 hPa 0,0 l/m 2 min 0 min 395 W/m 9,7 km/h (2 Bft) 95,74 %
07.03.2020 10:56 7,8 C 10,6 C 7,2 C 85 % 1018,9 hPa 0,0 l/m 2 min 0 min 535 W/m 6,4 km/h (2 Bft) 95,74 %
07.03.2020 10:58 7,9 C 10,6 C 7,2 C 84 % 1018,9 hPa 0,0 l/m 0 min 0 min 161 W/m 9,7 km/h (2 Bft) 97,87 %
07.03.2020 11:00 7,9 C 12,8 C 7,2 C 84 % 1018,9 hPa 0,0 l/m 2 min 0 min 368 W/m 6,4 km/h (2 Bft) 97,87 %
07.03.2020 11:02 8,0 C 13,9 C 7,2 C 83 % 1018,9 hPa 0,0 l/m 2 min 0 min 427 W/m 9,7 km/h (2 Bft) 97,87 %
07.03.2020 11:04 8,1 C 13,9 C 7,2 C 83 % 1018,9 hPa 0,0 l/m 2 min 0 min 616 W/m 12,9 km/h (3 Bft) 95,65 %
07.03.2020 11:06 8,2 C 11,7 C 7,2 C 83 % 1018,9 hPa 0,0 l/m 2 min 0 min 411 W/m 19,3 km/h (3 Bft) 97,87 %
07.03.2020 11:08 8,2 C 12,2 C 7,2 C 82 % 1018,9 hPa 0,0 l/m 2 min 0 min 309 W/m 0,0 km/h (0 Bft) 95,74 %
07.03.2020 11:10 8,3 C 10,6 C 7,2 C 81 % 1019,0 hPa 0,0 l/m 2 min 0 min 497 W/m 0,0 km/h (0 Bft) 97,87 %
07.03.2020 11:12 8,3 C 9,4 C 7,2 C 81 % 1019,0 hPa 0,0 l/m 0 min 0 min 157 W/m 0,0 km/h (0 Bft) 97,87 %
07.03.2020 11:14 8,3 C 8,9 C 6,7 C 81 % 1019,0 hPa 0,0 l/m 0 min 0 min 115 W/m 6,4 km/h (2 Bft) 97,83 %
07.03.2020 11:16 8,2 C 7,8 C 6,7 C 81 % 1019,0 hPa 0,0 l/m 0 min 0 min 98 W/m 12,9 km/h (3 Bft) 97,87 %
07.03.2020 11:18 8,2 C 9,4 C 6,7 C 80 % 1018,9 hPa 0,0 l/m 0 min 0 min 102 W/m 9,7 km/h (2 Bft) 97,87 %
07.03.2020 11:20 8,2 C 12,8 C 6,7 C 80 % 1019,0 hPa 0,0 l/m 2 min 0 min 460 W/m 12,9 km/h (3 Bft) 100,00 %
07.03.2020 11:22 8,3 C 13,3 C 7,2 C 81 % 1019,0 hPa 0,0 l/m 2 min 0 min 666 W/m 3,2 km/h (1 Bft) 100,00 %
07.03.2020 11:24 8,3 C 13,9 C 7,8 C 81 % 1019,0 hPa 0,0 l/m 2 min 0 min 688 W/m 12,9 km/h (3 Bft) 100,00 %
07.03.2020 11:26 8,4 C 13,9 C 7,8 C 81 % 1019,0 hPa 0,0 l/m 2 min 0 min 694 W/m 16,1 km/h (3 Bft) 97,83 %
07.03.2020 11:28 8,6 C 15,0 C 8,3 C 80 % 1019,0 hPa 0,0 l/m 2 min 0 min 676 W/m 9,7 km/h (2 Bft) 100,00 %
07.03.2020 11:30 8,7 C 12,8 C 7,8 C 79 % 1019,0 hPa 0,0 l/m 2 min 0 min 592 W/m 9,7 km/h (2 Bft) 100,00 %
07.03.2020 11:32 8,7 C 13,3 C 7,8 C 79 % 1019,1 hPa 0,0 l/m 2 min 0 min 261 W/m 3,2 km/h (1 Bft) 100,00 %
07.03.2020 11:34 8,8 C 13,3 C 7,8 C 78 % 1019,1 hPa 0,0 l/m 2 min 0 min 640 W/m 12,9 km/h (3 Bft) 100,00 %
07.03.2020 11:36 8,8 C 13,9 C 7,8 C 78 % 1019,1 hPa 0,0 l/m 2 min 0 min 630 W/m 6,4 km/h (2 Bft) 100,00 %
07.03.2020 11:38 8,9 C 14,4 C 7,8 C 77 % 1019,1 hPa 0,0 l/m 2 min 0 min 617 W/m 12,9 km/h (3 Bft) 100,00 %
07.03.2020 11:40 9,0 C 15,6 C 7,8 C 78 % 1019,1 hPa 0,0 l/m 2 min 0 min 615 W/m 9,7 km/h (2 Bft) 100,00 %
07.03.2020 11:42 9,1 C 14,4 C 7,8 C 77 % 1019,1 hPa 0,0 l/m 2 min 0 min 628 W/m 19,3 km/h (3 Bft) 100,00 %
07.03.2020 11:44 9,2 C 14,4 C 8,3 C 75 % 1019,1 hPa 0,0 l/m 2 min 0 min 647 W/m 16,1 km/h (3 Bft) 97,87 %
07.03.2020 11:46 9,3 C 15,0 C 8,3 C 75 % 1019,1 hPa 0,0 l/m 2 min 0 min 656 W/m 6,4 km/h (2 Bft) 100,00 %
07.03.2020 11:48 9,4 C 15,6 C 8,3 C 75 % 1019,1 hPa 0,0 l/m 2 min 0 min 659 W/m 12,9 km/h (3 Bft) 100,00 %
07.03.2020 11:50 9,5 C 15,6 C 8,9 C 75 % 1019,1 hPa 0,0 l/m 2 min 0 min 701 W/m 6,4 km/h (2 Bft) 100,00 %
07.03.2020 11:52 9,6 C 14,4 C 8,9 C 73 % 1019,1 hPa 0,0 l/m 2 min 0 min 723 W/m 22,5 km/h (4 Bft) 97,87 %
07.03.2020 11:54 9,7 C 15,6 C 8,9 C 74 % 1019,1 hPa 0,0 l/m 2 min 0 min 731 W/m 6,4 km/h (2 Bft) 100,00 %
07.03.2020 11:56 9,8 C 16,1 C 9,4 C 74 % 1019,2 hPa 0,0 l/m 2 min 0 min 746 W/m 16,1 km/h (3 Bft) 100,00 %
07.03.2020 11:58 9,9 C 16,7 C 9,4 C 74 % 1019,2 hPa 0,0 l/m 2 min 0 min 762 W/m 3,2 km/h (1 Bft) 100,00 %
07.03.2020 12:00 10,1 C 16,7 C 10,0 C 74 % 1019,1 hPa 0,0 l/m 2 min 0 min 771 W/m 12,9 km/h (3 Bft) 100,00 %
07.03.2020 12:02 10,1 C 16,7 C 10,0 C 73 % 1019,2 hPa 0,0 l/m 2 min 0 min 559 W/m 19,3 km/h (3 Bft) 97,83 %
07.03.2020 12:04 10,2 C 16,1 C 10,0 C 72 % 1019,2 hPa 0,0 l/m 2 min 0 min 755 W/m 16,1 km/h (3 Bft) 100,00 %
07.03.2020 12:08 10,3 C 12,2 C 8,9 C 70 % 1019,3 hPa 0,0 l/m 4 min 0 min 510 W/m 6,4 km/h (2 Bft) 100,00 %
07.03.2020 12:10 10,3 C 10,6 C 8,3 C 69 % 1019,3 hPa 0,0 l/m 0 min 0 min 119 W/m 6,4 km/h (2 Bft) 97,87 %
07.03.2020 12:12 10,2 C 10,0 C 8,3 C 69 % 1019,2 hPa 0,0 l/m 0 min 0 min 146 W/m 3,2 km/h (1 Bft) 97,87 %
07.03.2020 12:14 10,2 C 12,8 C 8,3 C 70 % 1019,3 hPa 0,0 l/m 2 min 0 min 361 W/m 9,7 km/h (2 Bft) 97,83 %
07.03.2020 12:16 10,1 C 13,9 C 8,3 C 69 % 1019,3 hPa 0,0 l/m 2 min 0 min 699 W/m 9,7 km/h (2 Bft) 97,87 %
07.03.2020 12:18 10,1 C 15,0 C 8,9 C 69 % 1019,3 hPa 0,0 l/m 2 min 0 min 708 W/m 9,7 km/h (2 Bft) 97,87 %
07.03.2020 12:20 10,2 C 15,6 C 9,4 C 70 % 1019,2 hPa 0,0 l/m 2 min 0 min 721 W/m 16,1 km/h (3 Bft) 97,87 %
07.03.2020 12:22 10,2 C 15,6 C 9,4 C 69 % 1019,3 hPa 0,0 l/m 2 min 0 min 739 W/m 12,9 km/h (3 Bft) 95,74 %
07.03.2020 12:24 10,3 C 15,0 C 9,4 C 70 % 1019,3 hPa 0,0 l/m 2 min 0 min 740 W/m 12,9 km/h (3 Bft) 97,83 %
07.03.2020 12:26 10,3 C 13,3 C 9,4 C 69 % 1019,3 hPa 0,0 l/m 2 min 0 min 740 W/m 0,0 km/h (0 Bft) 97,87 %
07.03.2020 12:28 10,3 C 12,2 C 9,4 C 69 % 1019,3 hPa 0,0 l/m 2 min 0 min 474 W/m 0,0 km/h (0 Bft) 97,87 %
07.03.2020 12:30 10,3 C 11,1 C 8,9 C 69 % 1019,2 hPa 0,0 l/m 0 min 0 min 191 W/m 9,7 km/h (2 Bft) 97,87 %
07.03.2020 12:32 10,2 C 10,6 C 8,3 C 69 % 1019,2 hPa 0,0 l/m 0 min 0 min 170 W/m 9,7 km/h (2 Bft) 97,87 %
07.03.2020 12:34 10,1 C 9,4 C 8,3 C 68 % 1019,2 hPa 0,0 l/m 0 min 0 min 142 W/m 12,9 km/h (3 Bft) 97,87 %
07.03.2020 12:36 10,0 C 9,4 C 8,3 C 69 % 1019,2 hPa 0,0 l/m 0 min 0 min 123 W/m 9,7 km/h (2 Bft) 95,65 %
07.03.2020 12:38 9,9 C 9,4 C 7,8 C 70 % 1019,2 hPa 0,0 l/m 0 min 0 min 117 W/m 9,7 km/h (2 Bft) 97,87 %
07.03.2020 12:40 9,8 C 11,1 C 8,9 C 70 % 1019,2 hPa 0,0 l/m 0 min 0 min 154 W/m 0,0 km/h (0 Bft) 97,87 %
07.03.2020 12:42 9,8 C 13,3 C 10,6 C 71 % 1019,1 hPa 0,0 l/m 0 min 0 min 269 W/m 0,0 km/h (0 Bft) 97,87 %
07.03.2020 12:44 9,8 C 12,8 C 10,0 C 71 % 1019,1 hPa 0,0 l/m 2 min 0 min 369 W/m 3,2 km/h (1 Bft) 95,74 %
07.03.2020 12:46 9,7 C 13,3 C 11,1 C 71 % 1019,1 hPa 0,0 l/m 0 min 0 min 205 W/m 3,2 km/h (1 Bft) 97,87 %
07.03.2020 12:48 9,8 C 12,8 C 11,1 C 71 % 1019,1 hPa 0,0 l/m 0 min 0 min 219 W/m 6,4 km/h (2 Bft) 97,83 %
07.03.2020 12:50 9,8 C 14,4 C 12,8 C 71 % 1019,1 hPa 0,0 l/m 2 min 0 min 438 W/m 16,1 km/h (3 Bft) 97,87 %
07.03.2020 12:52 9,9 C 16,1 C 14,4 C 71 % 1019,1 hPa 0,0 l/m 2 min 0 min 742 W/m 12,9 km/h (3 Bft) 95,74 %
07.03.2020 12:54 9,9 C 15,0 C 14,4 C 71 % 1019,1 hPa 0,0 l/m 2 min 0 min 697 W/m 16,1 km/h (3 Bft) 97,87 %
07.03.2020 12:56 10,1 C 13,3 C 13,3 C 70 % 1019,1 hPa 0,0 l/m 2 min 0 min 680 W/m 12,9 km/h (3 Bft) 95,74 %
07.03.2020 12:58 10,1 C 12,8 C 11,7 C 69 % 1019,2 hPa 0,0 l/m 2 min 0 min 389 W/m 0,0 km/h (0 Bft) 95,74 %
07.03.2020 13:00 10,1 C 11,1 C 10,0 C 69 % 1019,1 hPa 0,0 l/m 0 min 0 min 169 W/m 0,0 km/h (0 Bft) 97,83 %
07.03.2020 13:02 10,1 C 10,6 C 10,0 C 69 % 1019,2 hPa 0,0 l/m 0 min 0 min 204 W/m 3,2 km/h (1 Bft) 97,87 %
07.03.2020 13:04 10,1 C 10,6 C 9,4 C 69 % 1019,1 hPa 0,0 l/m 0 min 0 min 196 W/m 0,0 km/h (0 Bft) 97,87 %
07.03.2020 13:06 10,0 C 12,2 C 11,7 C 69 % 1019,2 hPa 0,0 l/m 2 min 0 min 562 W/m 12,9 km/h (3 Bft) 97,87 %
07.03.2020 13:08 10,0 C 12,8 C 12,2 C 69 % 1019,2 hPa 0,0 l/m 2 min 0 min 719 W/m 3,2 km/h (1 Bft) 95,74 %
07.03.2020 13:10 10,0 C 13,9 C 13,9 C 69 % 1019,1 hPa 0,0 l/m 2 min 0 min 742 W/m 19,3 km/h (3 Bft) 97,87 %
07.03.2020 13:12 10,1 C 15,0 C 15,0 C 69 % 1019,1 hPa 0,0 l/m 2 min 0 min 758 W/m 25,7 km/h (4 Bft) 97,83 %
07.03.2020 13:14 10,1 C 15,6 C 15,0 C 70 % 1019,1 hPa 0,0 l/m 2 min 0 min 766 W/m 12,9 km/h (3 Bft) 97,87 %
07.03.2020 13:16 10,3 C 16,1 C 13,9 C 70 % 1019,1 hPa 0,0 l/m 2 min 0 min 762 W/m 12,9 km/h (3 Bft) 95,74 %
07.03.2020 13:18 10,3 C 15,0 C 12,2 C 69 % 1019,3 hPa 0,0 l/m 2 min 0 min 754 W/m 25,7 km/h (4 Bft) 97,87 %
07.03.2020 13:20 10,4 C 14,4 C 12,2 C 69 % 1019,2 hPa 0,0 l/m 2 min 0 min 717 W/m 19,3 km/h (3 Bft) 97,87 %
07.03.2020 13:22 10,4 C 13,3 C 11,1 C 69 % 1019,2 hPa 0,0 l/m 2 min 0 min 386 W/m 12,9 km/h (3 Bft) 95,74 %
07.03.2020 13:24 10,4 C 12,2 C 10,6 C 69 % 1019,1 hPa 0,0 l/m 0 min 0 min 218 W/m 12,9 km/h (3 Bft) 97,83 %
07.03.2020 13:26 10,4 C 11,7 C 10,0 C 68 % 1019,2 hPa 0,0 l/m 2 min 0 min 288 W/m 12,9 km/h (3 Bft) 100,00 %
07.03.2020 13:28 10,4 C 10,6 C 9,4 C 68 % 1019,3 hPa 0,0 l/m 0 min 0 min 197 W/m 6,4 km/h (2 Bft) 100,00 %
07.03.2020 13:30 10,3 C 10,0 C 9,4 C 67 % 1019,3 hPa 0,0 l/m 0 min 0 min 185 W/m 9,7 km/h (2 Bft) 100,00 %
07.03.2020 13:32 10,2 C 10,0 C 8,9 C 67 % 1019,2 hPa 0,0 l/m 0 min 0 min 228 W/m 12,9 km/h (3 Bft) 97,87 %
07.03.2020 13:34 10,2 C 10,6 C 8,9 C 67 % 1019,2 hPa 0,0 l/m 0 min 0 min 256 W/m 9,7 km/h (2 Bft) 97,83 %
07.03.2020 13:36 10,1 C 12,8 C 9,4 C 68 % 1019,2 hPa 0,0 l/m 2 min 0 min 378 W/m 0,0 km/h (0 Bft) 100,00 %
07.03.2020 13:38 10,1 C 11,7 C 9,4 C 68 % 1019,2 hPa 0,0 l/m 2 min 0 min 481 W/m 16,1 km/h (3 Bft) 100,00 %
07.03.2020 13:40 10,1 C 12,8 C 9,4 C 68 % 1019,3 hPa 0,0 l/m 0 min 0 min 250 W/m 9,7 km/h (2 Bft) 97,87 %
07.03.2020 13:42 10,1 C 13,9 C 10,0 C 68 % 1019,2 hPa 0,0 l/m 0 min 0 min 250 W/m 16,1 km/h (3 Bft) 95,74 %
07.03.2020 13:44 10,1 C 13,9 C 10,0 C 68 % 1019,2 hPa 0,0 l/m 0 min 0 min 250 W/m 3,2 km/h (1 Bft) 97,87 %
07.03.2020 13:46 10,2 C 14,4 C 10,0 C 69 % 1019,3 hPa 0,0 l/m 2 min 0 min 351 W/m 0,0 km/h (0 Bft) 100,00 %
07.03.2020 13:48 10,3 C 15,6 C 10,0 C 70 % 1019,2 hPa 0,0 l/m 2 min 0 min 712 W/m 16,1 km/h (3 Bft) 100,00 %
07.03.2020 13:50 10,3 C 13,9 C 10,0 C 70 % 1019,2 hPa 0,0 l/m 2 min 0 min 721 W/m 12,9 km/h (3 Bft) 100,00 %
07.03.2020 13:52 10,4 C 13,9 C 10,0 C 69 % 1019,2 hPa 0,0 l/m 2 min 0 min 721 W/m 3,2 km/h (1 Bft) 95,45 %
07.03.2020 13:54 10,4 C 13,9 C 10,6 C 69 % 1019,2 hPa 0,0 l/m 2 min 0 min 584 W/m 3,2 km/h (1 Bft) 100,00 %
07.03.2020 13:56 10,5 C 12,8 C 10,0 C 68 % 1019,2 hPa 0,0 l/m 2 min 0 min 379 W/m 9,7 km/h (2 Bft) 100,00 %
07.03.2020 13:58 10,4 C 11,1 C 9,4 C 67 % 1019,2 hPa 0,0 l/m 0 min 0 min 211 W/m 6,4 km/h (2 Bft) 97,83 %
07.03.2020 14:00 10,4 C 10,6 C 9,4 C 67 % 1019,2 hPa 0,0 l/m 0 min 0 min 229 W/m 12,9 km/h (3 Bft) 97,87 %
07.03.2020 14:02 10,4 C 12,2 C 9,4 C 68 % 1019,2 hPa 0,0 l/m 2 min 0 min 270 W/m 12,9 km/h (3 Bft) 97,87 %
07.03.2020 14:04 10,4 C 13,9 C 10,0 C 68 % 1019,1 hPa 0,0 l/m 2 min 0 min 526 W/m 12,9 km/h (3 Bft) 100,00 %
07.03.2020 14:06 10,4 C 14,4 C 10,0 C 68 % 1019,2 hPa 0,0 l/m 2 min 0 min 639 W/m 16,1 km/h (3 Bft) 100,00 %
07.03.2020 14:08 10,5 C 15,0 C 10,6 C 68 % 1019,2 hPa 0,0 l/m 2 min 0 min 652 W/m 16,1 km/h (3 Bft) 95,74 %
07.03.2020 14:10 10,6 C 15,0 C 10,6 C 67 % 1019,1 hPa 0,0 l/m 2 min 0 min 643 W/m 19,3 km/h (3 Bft) 97,83 %
07.03.2020 14:12 10,6 C 15,0 C 10,6 C 68 % 1019,2 hPa 0,0 l/m 2 min 0 min 616 W/m 12,9 km/h (3 Bft) 97,87 %
07.03.2020 14:14 10,6 C 13,3 C 10,0 C 67 % 1019,2 hPa 0,0 l/m 2 min 0 min 389 W/m 19,3 km/h (3 Bft) 97,87 %
07.03.2020 14:16 10,7 C 14,4 C 10,6 C 67 % 1019,2 hPa 0,0 l/m 2 min 0 min 365 W/m 3,2 km/h (1 Bft) 97,87 %
07.03.2020 14:18 10,7 C 15,6 C 10,6 C 68 % 1019,2 hPa 0,0 l/m 2 min 0 min 701 W/m 9,7 km/h (2 Bft) 95,74 %
07.03.2020 14:20 10,8 C 15,6 C 11,1 C 68 % 1019,1 hPa 0,0 l/m 2 min 0 min 707 W/m 16,1 km/h (3 Bft) 97,83 %
07.03.2020 14:22 10,9 C 13,3 C 10,6 C 66 % 1019,2 hPa 0,0 l/m 2 min 0 min 584 W/m 22,5 km/h (4 Bft) 97,87 %
07.03.2020 14:24 10,9 C 12,8 C 10,0 C 66 % 1019,2 hPa 0,0 l/m 2 min 0 min 262 W/m 16,1 km/h (3 Bft) 95,74 %
07.03.2020 14:26 10,9 C 12,2 C 10,0 C 66 % 1019,3 hPa 0,0 l/m 0 min 0 min 244 W/m 12,9 km/h (3 Bft) 97,87 %
07.03.2020 14:28 10,8 C 11,1 C 10,0 C 65 % 1019,3 hPa 0,0 l/m 0 min 0 min 241 W/m 12,9 km/h (3 Bft) 95,74 %
07.03.2020 14:30 10,8 C 12,2 C 10,0 C 66 % 1019,2 hPa 0,0 l/m 2 min 0 min 269 W/m 3,2 km/h (1 Bft) 95,74 %
07.03.2020 14:32 10,8 C 13,9 C 10,6 C 66 % 1019,2 hPa 0,0 l/m 2 min 0 min 448 W/m 0,0 km/h (0 Bft) 95,65 %
07.03.2020 14:34 10,8 C 12,8 C 10,6 C 67 % 1019,3 hPa 0,0 l/m 2 min 0 min 452 W/m 0,0 km/h (0 Bft) 95,74 %
07.03.2020 14:36 10,8 C 12,2 C 10,0 C 67 % 1019,3 hPa 0,0 l/m 0 min 0 min 148 W/m 0,0 km/h (0 Bft) 95,74 %
07.03.2020 14:38 10,8 C 11,1 C 10,0 C 66 % 1019,2 hPa 0,0 l/m 0 min 0 min 131 W/m 3,2 km/h (1 Bft) 95,74 %
07.03.2020 14:40 10,7 C 10,0 C 9,4 C 65 % 1019,2 hPa 0,0 l/m 0 min 0 min 125 W/m 6,4 km/h (2 Bft) 95,74 %
07.03.2020 14:42 10,7 C 10,0 C 9,4 C 65 % 1019,3 hPa 0,0 l/m 0 min 0 min 116 W/m 12,9 km/h (3 Bft) 93,62 %
07.03.2020 14:44 10,6 C 9,4 C 8,9 C 65 % 1019,2 hPa 0,0 l/m 0 min 0 min 118 W/m 19,3 km/h (3 Bft) 97,83 %
07.03.2020 14:46 10,5 C 9,4 C 8,9 C 65 % 1019,2 hPa 0,0 l/m 0 min 0 min 133 W/m 16,1 km/h (3 Bft) 93,62 %
07.03.2020 14:48 10,4 C 9,4 C 8,9 C 66 % 1019,2 hPa 0,0 l/m 0 min 0 min 166 W/m 12,9 km/h (3 Bft) 91,49 %
07.03.2020 14:50 10,3 C 10,6 C 8,9 C 65 % 1019,1 hPa 0,0 l/m 0 min 0 min 204 W/m 12,9 km/h (3 Bft) 95,74 %
07.03.2020 14:52 10,3 C 10,6 C 9,4 C 66 % 1019,1 hPa 0,0 l/m 2 min 0 min 249 W/m 9,7 km/h (2 Bft) 95,74 %
07.03.2020 14:54 10,2 C 10,6 C 9,4 C 66 % 1019,1 hPa 0,0 l/m 0 min 0 min 198 W/m 9,7 km/h (2 Bft) 93,62 %
07.03.2020 14:56 10,2 C 10,0 C 9,4 C 67 % 1019,2 hPa 0,0 l/m 0 min 0 min 167 W/m 25,7 km/h (4 Bft) 93,48 %
07.03.2020 14:58 10,1 C 10,0 C 8,9 C 65 % 1019,2 hPa 0,0 l/m 0 min 0 min 144 W/m 16,1 km/h (3 Bft) 95,74 %
07.03.2020 15:00 10,1 C 9,4 C 8,9 C 65 % 1019,2 hPa 0,0 l/m 0 min 0 min 136 W/m 22,5 km/h (4 Bft) 95,74 %
07.03.2020 15:02 10,0 C 9,4 C 8,9 C 65 % 1019,2 hPa 0,0 l/m 0 min 0 min 126 W/m 16,1 km/h (3 Bft) 91,49 %
07.03.2020 15:04 9,9 C 9,4 C 8,9 C 67 % 1019,2 hPa 0,0 l/m 0 min 0 min 124 W/m 6,4 km/h (2 Bft) 97,87 %
07.03.2020 15:06 9,9 C 11,1 C 9,4 C 68 % 1019,2 hPa 0,0 l/m 0 min 0 min 154 W/m 3,2 km/h (1 Bft) 93,62 %
07.03.2020 15:08 9,9 C 11,7 C 9,4 C 67 % 1019,2 hPa 0,0 l/m 2 min 0 min 492 W/m 0,0 km/h (0 Bft) 93,48 %
07.03.2020 15:10 10,0 C 12,2 C 10,0 C 67 % 1019,3 hPa 0,0 l/m 2 min 0 min 492 W/m 0,0 km/h (0 Bft) 91,49 %
07.03.2020 15:12 10,0 C 11,7 C 10,0 C 67 % 1019,2 hPa 0,0 l/m 2 min 0 min 236 W/m 3,2 km/h (1 Bft) 93,62 %
07.03.2020 15:14 10,1 C 11,1 C 9,4 C 67 % 1019,2 hPa 0,0 l/m 0 min 0 min 196 W/m 0,0 km/h (0 Bft) 93,62 %
07.03.2020 15:16 10,1 C 10,6 C 9,4 C 67 % 1019,2 hPa 0,0 l/m 0 min 0 min 204 W/m 3,2 km/h (1 Bft) 95,74 %
07.03.2020 15:18 10,1 C 11,1 C 9,4 C 67 % 1019,2 hPa 0,0 l/m 2 min 0 min 244 W/m 9,7 km/h (2 Bft) 95,74 %
07.03.2020 15:20 10,1 C 12,2 C 10,0 C 66 % 1019,1 hPa 0,0 l/m 2 min 0 min 440 W/m 6,4 km/h (2 Bft) 95,65 %
07.03.2020 15:22 10,1 C 12,8 C 10,0 C 66 % 1019,1 hPa 0,0 l/m 2 min 0 min 462 W/m 0,0 km/h (0 Bft) 95,74 %
07.03.2020 15:24 10,2 C 13,9 C 10,6 C 67 % 1019,1 hPa 0,0 l/m 2 min 0 min 477 W/m 16,1 km/h (3 Bft) 95,74 %
07.03.2020 15:26 10,3 C 14,4 C 10,6 C 68 % 1019,1 hPa 0,0 l/m 2 min 0 min 462 W/m 0,0 km/h (0 Bft) 97,87 %
07.03.2020 15:28 10,4 C 13,9 C 10,6 C 66 % 1019,1 hPa 0,0 l/m 2 min 0 min 450 W/m 32,2 km/h (5 Bft) 95,74 %
07.03.2020 15:30 10,4 C 12,8 C 10,0 C 65 % 1019,1 hPa 0,0 l/m 2 min 0 min 357 W/m 3,2 km/h (1 Bft) 97,83 %
07.03.2020 15:32 10,4 C 11,1 C 10,0 C 65 % 1019,1 hPa 0,0 l/m 0 min 0 min 124 W/m 22,5 km/h (4 Bft) 97,87 %
07.03.2020 15:34 10,4 C 10,6 C 9,4 C 64 % 1019,1 hPa 0,0 l/m 0 min 0 min 118 W/m 12,9 km/h (3 Bft) 97,87 %
07.03.2020 15:36 10,4 C 10,0 C 9,4 C 64 % 1019,2 hPa 0,0 l/m 0 min 0 min 129 W/m 6,4 km/h (2 Bft) 97,87 %
07.03.2020 15:38 10,4 C 10,0 C 8,9 C 65 % 1019,2 hPa 0,0 l/m 0 min 0 min 127 W/m 0,0 km/h (0 Bft) 97,87 %
07.03.2020 15:40 10,4 C 10,0 C 8,9 C 66 % 1019,2 hPa 0,0 l/m 0 min 0 min 119 W/m 0,0 km/h (0 Bft) 95,74 %
07.03.2020 15:42 10,3 C 9,4 C 8,9 C 65 % 1019,2 hPa 0,0 l/m 0 min 0 min 127 W/m 16,1 km/h (3 Bft) 97,83 %
07.03.2020 15:44 10,3 C 10,0 C 8,9 C 65 % 1019,2 hPa 0,0 l/m 0 min 0 min 139 W/m 6,4 km/h (2 Bft) 97,87 %
07.03.2020 15:46 10,2 C 10,0 C 8,9 C 64 % 1019,2 hPa 0,0 l/m 0 min 0 min 149 W/m 6,4 km/h (2 Bft) 95,74 %
07.03.2020 15:48 10,2 C 10,0 C 8,9 C 65 % 1019,2 hPa 0,0 l/m 2 min 0 min 185 W/m 0,0 km/h (0 Bft) 97,87 %
07.03.2020 15:50 10,2 C 11,7 C 9,4 C 65 % 1019,1 hPa 0,0 l/m 2 min 0 min 253 W/m 9,7 km/h (2 Bft) 100,00 %
07.03.2020 15:52 10,1 C 12,2 C 10,0 C 65 % 1019,1 hPa 0,0 l/m 2 min 0 min 377 W/m 16,1 km/h (3 Bft) 100,00 %
07.03.2020 15:54 10,2 C 11,7 C 10,0 C 65 % 1019,1 hPa 0,0 l/m 2 min 0 min 328 W/m 12,9 km/h (3 Bft) 100,00 %
07.03.2020 15:56 10,2 C 11,7 C 10,0 C 65 % 1019,1 hPa 0,0 l/m 2 min 0 min 216 W/m 12,9 km/h (3 Bft) 97,87 %
07.03.2020 15:58 10,2 C 11,1 C 9,4 C 65 % 1019,1 hPa 0,0 l/m 0 min 0 min 160 W/m 0,0 km/h (0 Bft) 100,00 %
07.03.2020 16:00 10,2 C 11,1 C 9,4 C 65 % 1019,0 hPa 0,0 l/m 0 min 0 min 142 W/m 3,2 km/h (1 Bft) 100,00 %
07.03.2020 16:02 10,2 C 11,7 C 10,0 C 66 % 1019,0 hPa 0,0 l/m 2 min 0 min 180 W/m 0,0 km/h (0 Bft) 100,00 %
07.03.2020 16:04 10,2 C 11,7 C 9,4 C 66 % 1019,1 hPa 0,0 l/m 2 min 0 min 179 W/m 0,0 km/h (0 Bft) 100,00 %
07.03.2020 16:06 10,2 C 11,1 C 9,4 C 66 % 1019,1 hPa 0,0 l/m 0 min 0 min 135 W/m 0,0 km/h (0 Bft) 100,00 %
07.03.2020 16:08 10,2 C 11,1 C 10,0 C 66 % 1019,0 hPa 0,0 l/m 0 min 0 min 145 W/m 0,0 km/h (0 Bft) 100,00 %
07.03.2020 16:10 10,2 C 10,6 C 9,4 C 66 % 1019,0 hPa 0,0 l/m 0 min 0 min 135 W/m 0,0 km/h (0 Bft) 100,00 %
07.03.2020 16:12 10,2 C 11,1 C 10,0 C 65 % 1019,0 hPa 0,0 l/m 0 min 0 min 146 W/m 12,9 km/h (3 Bft) 97,87 %
07.03.2020 16:14 10,2 C 11,1 C 10,0 C 64 % 1018,9 hPa 0,0 l/m 2 min 0 min 306 W/m 22,5 km/h (4 Bft) 100,00 %
07.03.2020 16:16 10,2 C 10,6 C 9,4 C 64 % 1019,0 hPa 0,0 l/m 0 min 0 min 141 W/m 16,1 km/h (3 Bft) 100,00 %
07.03.2020 16:18 10,2 C 10,0 C 9,4 C 64 % 1019,0 hPa 0,0 l/m 0 min 0 min 118 W/m 12,9 km/h (3 Bft) 100,00 %
07.03.2020 16:20 10,1 C 10,0 C 8,9 C 65 % 1019,0 hPa 0,0 l/m 0 min 0 min 129 W/m 12,9 km/h (3 Bft) 100,00 %
07.03.2020 16:22 10,1 C 11,1 C 9,4 C 64 % 1019,0 hPa 0,0 l/m 2 min 0 min 232 W/m 12,9 km/h (3 Bft) 100,00 %
07.03.2020 16:24 10,1 C 10,6 C 9,4 C 65 % 1019,0 hPa 0,0 l/m 0 min 0 min 136 W/m 0,0 km/h (0 Bft) 100,00 %
07.03.2020 16:26 10,1 C 10,6 C 9,4 C 66 % 1019,0 hPa 0,0 l/m 2 min 0 min 147 W/m 0,0 km/h (0 Bft) 100,00 %
07.03.2020 16:28 10,1 C 10,0 C 9,4 C 65 % 1019,0 hPa 0,0 l/m 2 min 0 min 148 W/m 19,3 km/h (3 Bft) 100,00 %
07.03.2020 16:30 10,0 C 10,0 C 8,9 C 65 % 1018,9 hPa 0,0 l/m 0 min 0 min 131 W/m 25,7 km/h (4 Bft) 100,00 %
07.03.2020 16:32 9,9 C 9,4 C 8,9 C 64 % 1019,0 hPa 0,0 l/m 2 min 0 min 144 W/m 22,5 km/h (4 Bft) 97,87 %
07.03.2020 16:34 9,9 C 10,0 C 8,9 C 64 % 1019,0 hPa 0,0 l/m 2 min 0 min 149 W/m 3,2 km/h (1 Bft) 100,00 %
07.03.2020 16:36 9,9 C 9,4 C 8,9 C 65 % 1019,0 hPa 0,0 l/m 2 min 0 min 140 W/m 22,5 km/h (4 Bft) 97,87 %
07.03.2020 16:38 9,9 C 9,4 C 8,9 C 64 % 1019,0 hPa 0,0 l/m 2 min 0 min 133 W/m 16,1 km/h (3 Bft) 100,00 %
07.03.2020 16:40 9,8 C 9,4 C 8,9 C 64 % 1019,0 hPa 0,0 l/m 2 min 0 min 128 W/m 16,1 km/h (3 Bft) 97,83 %
07.03.2020 16:42 9,8 C 9,4 C 8,9 C 65 % 1019,0 hPa 0,0 l/m 2 min 0 min 130 W/m 9,7 km/h (2 Bft) 100,00 %
07.03.2020 16:44 9,8 C 9,4 C 8,9 C 65 % 1019,0 hPa 0,0 l/m 2 min 0 min 132 W/m 16,1 km/h (3 Bft) 100,00 %
07.03.2020 16:46 9,8 C 9,4 C 8,9 C 65 % 1019,0 hPa 0,0 l/m 2 min 0 min 130 W/m 6,4 km/h (2 Bft) 100,00 %
07.03.2020 16:48 9,8 C 9,4 C 8,9 C 65 % 1019,0 hPa 0,0 l/m 2 min 0 min 124 W/m 6,4 km/h (2 Bft) 100,00 %
07.03.2020 16:50 9,8 C 9,4 C 8,9 C 66 % 1019,0 hPa 0,0 l/m 2 min 0 min 117 W/m 12,9 km/h (3 Bft) 100,00 %
07.03.2020 16:52 9,7 C 9,4 C 8,9 C 66 % 1019,0 hPa 0,0 l/m 0 min 0 min 109 W/m 12,9 km/h (3 Bft) 100,00 %
07.03.2020 16:54 9,7 C 9,4 C 8,3 C 66 % 1019,0 hPa 0,0 l/m 0 min 0 min 101 W/m 3,2 km/h (1 Bft) 97,87 %
07.03.2020 16:56 9,7 C 9,4 C 8,3 C 66 % 1019,0 hPa 0,0 l/m 0 min 0 min 94 W/m 3,2 km/h (1 Bft) 100,00 %
07.03.2020 16:58 9,7 C 9,4 C 8,3 C 65 % 1019,0 hPa 0,0 l/m 0 min 0 min 88 W/m 0,0 km/h (0 Bft) 100,00 %
07.03.2020 17:00 9,6 C 9,4 C 8,3 C 65 % 1019,0 hPa 0,0 l/m 0 min 0 min 82 W/m 22,5 km/h (4 Bft) 100,00 %
07.03.2020 17:02 9,6 C 8,9 C 8,3 C 65 % 1019,1 hPa 0,0 l/m 0 min 0 min 77 W/m 22,5 km/h (4 Bft) 100,00 %
07.03.2020 17:04 9,6 C 8,9 C 8,3 C 65 % 1019,1 hPa 0,0 l/m 0 min 0 min 77 W/m 6,4 km/h (2 Bft) 100,00 %
07.03.2020 17:06 9,6 C 8,9 C 8,3 C 66 % 1019,1 hPa 0,0 l/m 0 min 0 min 76 W/m 6,4 km/h (2 Bft) 97,87 %
07.03.2020 17:08 9,6 C 8,9 C 8,3 C 67 % 1019,1 hPa 0,0 l/m 0 min 0 min 72 W/m 12,9 km/h (3 Bft) 100,00 %
07.03.2020 17:10 9,6 C 8,9 C 8,3 C 67 % 1019,1 hPa 0,0 l/m 0 min 0 min 68 W/m 16,1 km/h (3 Bft) 100,00 %
07.03.2020 17:12 9,5 C 8,9 C 8,3 C 66 % 1019,1 hPa 0,0 l/m 0 min 0 min 63 W/m 12,9 km/h (3 Bft) 100,00 %
07.03.2020 17:14 9,5 C 8,9 C 8,3 C 66 % 1019,1 hPa 0,0 l/m 0 min 0 min 62 W/m 6,4 km/h (2 Bft) 100,00 %
07.03.2020 17:16 9,5 C 8,9 C 8,3 C 67 % 1019,1 hPa 0,0 l/m 0 min 0 min 62 W/m 6,4 km/h (2 Bft) 100,00 %
07.03.2020 17:18 9,5 C 8,9 C 8,3 C 67 % 1019,1 hPa 0,0 l/m 0 min 0 min 58 W/m 12,9 km/h (3 Bft) 100,00 %
07.03.2020 17:20 9,5 C 8,9 C 8,3 C 67 % 1019,1 hPa 0,0 l/m 0 min 0 min 53 W/m 12,9 km/h (3 Bft) 97,87 %
07.03.2020 17:22 9,4 C 8,9 C 8,3 C 66 % 1019,1 hPa 0,0 l/m 0 min 0 min 49 W/m 12,9 km/h (3 Bft) 97,87 %
07.03.2020 17:24 9,4 C 8,9 C 8,3 C 66 % 1019,2 hPa 0,0 l/m 0 min 0 min 47 W/m 19,3 km/h (3 Bft) 95,74 %
07.03.2020 17:26 9,4 C 8,9 C 8,3 C 66 % 1019,2 hPa 0,0 l/m 0 min 0 min 38 W/m 16,1 km/h (3 Bft) 97,87 %
07.03.2020 17:28 9,4 C 8,9 C 8,3 C 66 % 1019,2 hPa 0,0 l/m 0 min 0 min 28 W/m 12,9 km/h (3 Bft) 97,83 %
07.03.2020 17:30 9,4 C 8,3 C 7,8 C 67 % 1019,3 hPa 0,0 l/m 0 min 0 min 24 W/m 16,1 km/h (3 Bft) 97,87 %
07.03.2020 17:32 9,4 C 8,3 C 7,8 C 67 % 1019,2 hPa 0,0 l/m 0 min 0 min 19 W/m 0,0 km/h (0 Bft) 91,49 %
07.03.2020 17:34 9,3 C 8,3 C 7,8 C 67 % 1019,3 hPa 0,0 l/m 0 min 0 min 16 W/m 0,0 km/h (0 Bft) 95,74 %
07.03.2020 17:36 9,3 C 8,3 C 7,8 C 68 % 1019,3 hPa 0,0 l/m 0 min 0 min 17 W/m 0,0 km/h (0 Bft) 93,62 %
07.03.2020 17:38 9,3 C 8,3 C 7,8 C 68 % 1019,3 hPa 0,0 l/m 0 min 0 min 20 W/m 3,2 km/h (1 Bft) 97,87 %
07.03.2020 17:40 9,3 C 8,3 C 7,8 C 68 % 1019,3 hPa 0,0 l/m 0 min 0 min 19 W/m 6,4 km/h (2 Bft) 97,83 %
07.03.2020 17:42 9,3 C 8,3 C 7,8 C 67 % 1019,3 hPa 0,0 l/m 0 min 0 min 20 W/m 0,0 km/h (0 Bft) 93,62 %
07.03.2020 17:44 9,2 C 8,3 C 7,8 C 67 % 1019,3 hPa 0,0 l/m 0 min 0 min 26 W/m 3,2 km/h (1 Bft) 93,62 %
07.03.2020 17:46 9,2 C 8,3 C 7,8 C 67 % 1019,3 hPa 0,0 l/m 0 min 0 min 33 W/m 16,1 km/h (3 Bft) 93,62 %
07.03.2020 17:48 9,2 C 8,3 C 7,8 C 67 % 1019,3 hPa 0,0 l/m 0 min 0 min 39 W/m 16,1 km/h (3 Bft) 93,62 %
07.03.2020 17:50 9,2 C 8,3 C 7,8 C 66 % 1019,3 hPa 0,0 l/m 0 min 0 min 40 W/m 16,1 km/h (3 Bft) 94,44 %
07.03.2020 17:52 9,2 C 8,3 C 7,8 C 66 % 1019,3 hPa 0,0 l/m 0 min 0 min 36 W/m 12,9 km/h (3 Bft) 93,62 %
07.03.2020 17:54 9,2 C 8,3 C 7,8 C 67 % 1019,4 hPa 0,0 l/m 0 min 0 min 28 W/m 3,2 km/h (1 Bft) 91,49 %
07.03.2020 17:56 9,2 C 8,3 C 7,8 C 67 % 1019,4 hPa 0,0 l/m 0 min 0 min 23 W/m 12,9 km/h (3 Bft) 93,62 %
07.03.2020 17:58 9,2 C 8,3 C 7,8 C 67 % 1019,4 hPa 0,0 l/m 0 min 0 min 16 W/m 0,0 km/h (0 Bft) 89,36 %
07.03.2020 18:00 9,2 C 8,3 C 7,8 C 68 % 1019,5 hPa 0,0 l/m 0 min 0 min 12 W/m 0,0 km/h (0 Bft) 93,62 %
07.03.2020 18:02 9,2 C 8,3 C 7,8 C 67 % 1019,4 hPa 0,0 l/m 0 min 0 min 11 W/m 6,4 km/h (2 Bft) 91,30 %
07.03.2020 18:04 9,1 C 8,3 C 7,8 C 67 % 1019,4 hPa 0,0 l/m 0 min 0 min 10 W/m 3,2 km/h (1 Bft) 93,62 %
07.03.2020 18:08 9,1 C 8,3 C 7,8 C 67 % 1019,5 hPa 0,0 l/m 0 min 0 min 8 W/m 16,1 km/h (3 Bft) 92,55 %
07.03.2020 18:10 9,1 C 8,3 C 7,8 C 67 % 1019,5 hPa 0,0 l/m 0 min 0 min 5 W/m 6,4 km/h (2 Bft) 93,62 %
07.03.2020 18:12 9,1 C 8,3 C 7,8 C 67 % 1019,5 hPa 0,0 l/m 0 min 0 min 5 W/m 6,4 km/h (2 Bft) 93,62 %
07.03.2020 18:14 9,1 C 8,3 C 7,8 C 67 % 1019,4 hPa 0,0 l/m 0 min 0 min 5 W/m 3,2 km/h (1 Bft) 93,48 %
07.03.2020 18:16 9,1 C 8,3 C 7,8 C 67 % 1019,4 hPa 0,0 l/m 0 min 0 min 2 W/m 16,1 km/h (3 Bft) 93,62 %
07.03.2020 18:18 9,1 C 8,3 C 7,8 C 67 % 1019,4 hPa 0,0 l/m 0 min 0 min 0 W/m 16,1 km/h (3 Bft) 91,49 %
07.03.2020 18:20 9,1 C 8,3 C 7,8 C 67 % 1019,4 hPa 0,0 l/m 0 min 0 min 0 W/m 12,9 km/h (3 Bft) 93,62 %
07.03.2020 18:22 9,1 C 8,3 C 7,8 C 67 % 1019,4 hPa 0,0 l/m 0 min 0 min 0 W/m 16,1 km/h (3 Bft) 95,74 %
07.03.2020 18:24 9,1 C 8,3 C 7,8 C 67 % 1019,4 hPa 0,0 l/m 0 min 0 min 0 W/m 19,3 km/h (3 Bft) 95,74 %
07.03.2020 18:26 9,1 C 8,3 C 7,8 C 67 % 1019,4 hPa 0,0 l/m 0 min 0 min 0 W/m 12,9 km/h (3 Bft) 93,48 %
07.03.2020 18:28 9,1 C 8,3 C 7,8 C 67 % 1019,4 hPa 0,0 l/m 0 min 0 min 0 W/m 16,1 km/h (3 Bft) 97,87 %
07.03.2020 18:30 9,1 C 8,3 C 7,8 C 67 % 1019,5 hPa 0,0 l/m 0 min 0 min 0 W/m 29,0 km/h (5 Bft) 97,87 %
07.03.2020 18:32 9,0 C 8,3 C 7,8 C 67 % 1019,5 hPa 0,0 l/m 0 min 0 min 0 W/m 6,4 km/h (2 Bft) 97,87 %
07.03.2020 18:34 9,0 C 8,3 C 7,8 C 67 % 1019,5 hPa 0,0 l/m 0 min 0 min 0 W/m 0,0 km/h (0 Bft) 97,87 %
07.03.2020 18:36 9,0 C 8,3 C 7,8 C 67 % 1019,6 hPa 0,0 l/m 0 min 0 min 0 W/m 0,0 km/h (0 Bft) 97,83 %
07.03.2020 18:38 9,0 C 8,3 C 7,8 C 67 % 1019,5 hPa 0,0 l/m 0 min 0 min 0 W/m 0,0 km/h (0 Bft) 100,00 %
07.03.2020 18:40 9,0 C 8,3 C 7,8 C 67 % 1019,6 hPa 0,0 l/m 0 min 0 min 0 W/m 16,1 km/h (3 Bft) 100,00 %
07.03.2020 18:42 9,0 C 8,3 C 7,8 C 67 % 1019,6 hPa 0,0 l/m 0 min 0 min 0 W/m 12,9 km/h (3 Bft) 100,00 %
07.03.2020 18:44 9,0 C 8,3 C 7,8 C 67 % 1019,5 hPa 0,0 l/m 0 min 0 min 0 W/m 12,9 km/h (3 Bft) 100,00 %
07.03.2020 18:46 9,0 C 8,3 C 7,8 C 67 % 1019,6 hPa 0,0 l/m 0 min 0 min 0 W/m 12,9 km/h (3 Bft) 93,62 %
07.03.2020 18:48 9,0 C 8,3 C 7,8 C 68 % 1019,6 hPa 0,0 l/m 0 min 0 min 0 W/m 0,0 km/h (0 Bft) 100,00 %
07.03.2020 18:50 8,9 C 8,3 C 7,8 C 68 % 1019,6 hPa 0,0 l/m 0 min 0 min 0 W/m 0,0 km/h (0 Bft) 100,00 %
07.03.2020 18:52 8,9 C 8,3 C 7,2 C 68 % 1019,7 hPa 0,0 l/m 0 min 0 min 0 W/m 0,0 km/h (0 Bft) 100,00 %
07.03.2020 18:54 8,9 C 8,3 C 7,2 C 68 % 1019,7 hPa 0,0 l/m 0 min 0 min 0 W/m 0,0 km/h (0 Bft) 100,00 %
07.03.2020 18:56 8,9 C 8,3 C 7,2 C 68 % 1019,7 hPa 0,0 l/m 0 min 0 min 0 W/m 12,9 km/h (3 Bft) 100,00 %
07.03.2020 18:58 8,9 C 8,3 C 7,8 C 68 % 1019,7 hPa 0,0 l/m 0 min 0 min 0 W/m 16,1 km/h (3 Bft) 100,00 %
07.03.2020 19:00 8,9 C 8,3 C 7,8 C 67 % 1019,6 hPa 0,0 l/m 0 min 0 min 0 W/m 16,1 km/h (3 Bft) 100,00 %
07.03.2020 19:02 8,9 C 8,3 C 7,8 C 68 % 1019,6 hPa 0,0 l/m 0 min 0 min 0 W/m 6,4 km/h (2 Bft) 97,87 %
07.03.2020 19:04 8,9 C 8,3 C 7,2 C 68 % 1019,7 hPa 0,0 l/m 0 min 0 min 0 W/m 16,1 km/h (3 Bft) 100,00 %
07.03.2020 19:06 8,9 C 8,3 C 7,2 C 68 % 1019,6 hPa 0,0 l/m 0 min 0 min 0 W/m 3,2 km/h (1 Bft) 100,00 %
07.03.2020 19:08 8,8 C 8,3 C 7,2 C 68 % 1019,7 hPa 0,0 l/m 0 min 0 min 0 W/m 16,1 km/h (3 Bft) 100,00 %
07.03.2020 19:10 8,8 C 8,3 C 7,8 C 68 % 1019,7 hPa 0,0 l/m 0 min 0 min 0 W/m 16,1 km/h (3 Bft) 97,87 %
07.03.2020 19:12 8,8 C 8,3 C 7,8 C 68 % 1019,7 hPa 0,0 l/m 0 min 0 min 0 W/m 0,0 km/h (0 Bft) 100,00 %
07.03.2020 19:14 8,8 C 8,3 C 7,2 C 68 % 1019,6 hPa 0,0 l/m 0 min 0 min 0 W/m 16,1 km/h (3 Bft) 95,74 %
07.03.2020 19:16 8,8 C 8,3 C 7,2 C 68 % 1019,7 hPa 0,0 l/m 0 min 0 min 0 W/m 6,4 km/h (2 Bft) 100,00 %
07.03.2020 19:18 8,8 C 8,3 C 7,2 C 68 % 1019,7 hPa 0,0 l/m 0 min 0 min 0 W/m 19,3 km/h (3 Bft) 97,87 %
07.03.2020 19:20 8,8 C 8,3 C 7,8 C 67 % 1019,7 hPa 0,0 l/m 0 min 0 min 0 W/m 12,9 km/h (3 Bft) 100,00 %
07.03.2020 19:22 8,8 C 8,3 C 7,8 C 68 % 1019,7 hPa 0,0 l/m 0 min 0 min 0 W/m 0,0 km/h (0 Bft) 100,00 %
07.03.2020 19:24 8,8 C 8,3 C 7,8 C 68 % 1019,8 hPa 0,0 l/m 0 min 0 min 0 W/m 0,0 km/h (0 Bft) 100,00 %
07.03.2020 19:26 8,8 C 8,3 C 7,2 C 68 % 1019,8 hPa 0,0 l/m 0 min 0 min 0 W/m 6,4 km/h (2 Bft) 97,87 %
07.03.2020 19:28 8,8 C 7,8 C 7,2 C 68 % 1019,8 hPa 0,0 l/m 0 min 0 min 0 W/m 0,0 km/h (0 Bft) 100,00 %
07.03.2020 19:30 8,8 C 8,3 C 7,2 C 68 % 1019,9 hPa 0,0 l/m 0 min 0 min 0 W/m 16,1 km/h (3 Bft) 100,00 %
07.03.2020 19:32 8,8 C 8,3 C 7,2 C 68 % 1019,8 hPa 0,0 l/m 0 min 0 min 0 W/m 6,4 km/h (2 Bft) 100,00 %
07.03.2020 19:34 8,8 C 7,8 C 7,2 C 68 % 1019,8 hPa 0,0 l/m 0 min 0 min 0 W/m 6,4 km/h (2 Bft) 100,00 %
07.03.2020 19:36 8,8 C 7,8 C 7,2 C 68 % 1019,8 hPa 0,0 l/m 0 min 0 min 0 W/m 16,1 km/h (3 Bft) 100,00 %
07.03.2020 19:38 8,8 C 7,8 C 7,2 C 68 % 1019,9 hPa 0,0 l/m 0 min 0 min 0 W/m 3,2 km/h (1 Bft) 100,00 %
07.03.2020 19:40 8,8 C 7,8 C 7,2 C 68 % 1019,8 hPa 0,0 l/m 0 min 0 min 0 W/m 0,0 km/h (0 Bft) 100,00 %
07.03.2020 19:42 8,8 C 7,8 C 7,2 C 68 % 1019,9 hPa 0,0 l/m 0 min 0 min 0 W/m 16,1 km/h (3 Bft) 100,00 %
07.03.2020 19:44 8,8 C 7,8 C 7,2 C 68 % 1019,9 hPa 0,0 l/m 0 min 0 min 0 W/m 6,4 km/h (2 Bft) 100,00 %
07.03.2020 19:46 8,8 C 7,8 C 7,2 C 68 % 1019,8 hPa 0,0 l/m 0 min 0 min 0 W/m 16,1 km/h (3 Bft) 100,00 %
07.03.2020 19:48 8,8 C 7,8 C 7,2 C 68 % 1019,8 hPa 0,0 l/m 0 min 0 min 0 W/m 0,0 km/h (0 Bft) 100,00 %
07.03.2020 19:50 8,8 C 7,8 C 7,2 C 69 % 1019,8 hPa 0,0 l/m 0 min 0 min 0 W/m 0,0 km/h (0 Bft) 100,00 %
07.03.2020 19:52 8,7 C 7,8 C 7,2 C 69 % 1019,9 hPa 0,0 l/m 0 min 0 min 0 W/m 19,3 km/h (3 Bft) 97,87 %
07.03.2020 19:54 8,7 C 7,8 C 7,2 C 68 % 1019,8 hPa 0,0 l/m 0 min 0 min 0 W/m 12,9 km/h (3 Bft) 100,00 %
07.03.2020 19:56 8,7 C 7,8 C 7,2 C 68 % 1019,8 hPa 0,0 l/m 0 min 0 min 0 W/m 16,1 km/h (3 Bft) 100,00 %
07.03.2020 19:58 8,7 C 7,8 C 7,2 C 69 % 1019,8 hPa 0,0 l/m 0 min 0 min 0 W/m 12,9 km/h (3 Bft) 100,00 %
07.03.2020 20:00 8,7 C 7,8 C 7,2 C 69 % 1019,8 hPa 0,0 l/m 0 min 0 min 0 W/m 19,3 km/h (3 Bft) 97,83 %
07.03.2020 20:02 8,7 C 7,8 C 7,2 C 68 % 1019,7 hPa 0,0 l/m 0 min 0 min 0 W/m 22,5 km/h (4 Bft) 97,87 %
07.03.2020 20:04 8,7 C 7,8 C 7,2 C 68 % 1019,7 hPa 0,0 l/m 0 min 0 min 0 W/m 12,9 km/h (3 Bft) 100,00 %
07.03.2020 20:06 8,7 C 7,8 C 7,2 C 68 % 1019,7 hPa 0,0 l/m 0 min 0 min 0 W/m 3,2 km/h (1 Bft) 100,00 %
07.03.2020 20:08 8,7 C 7,8 C 7,2 C 68 % 1019,6 hPa 0,0 l/m 0 min 0 min 0 W/m 16,1 km/h (3 Bft) 97,87 %
07.03.2020 20:10 8,7 C 7,8 C 7,2 C 68 % 1019,6 hPa 0,0 l/m 0 min 0 min 0 W/m 6,4 km/h (2 Bft) 97,87 %
07.03.2020 20:12 8,7 C 7,8 C 7,2 C 68 % 1019,6 hPa 0,0 l/m 0 min 0 min 0 W/m 9,7 km/h (2 Bft) 97,83 %
07.03.2020 20:14 8,7 C 7,8 C 7,2 C 68 % 1019,6 hPa 0,0 l/m 0 min 0 min 0 W/m 16,1 km/h (3 Bft) 100,00 %
07.03.2020 20:16 8,7 C 7,8 C 7,2 C 69 % 1019,6 hPa 0,0 l/m 0 min 0 min 0 W/m 16,1 km/h (3 Bft) 95,74 %
07.03.2020 20:18 8,7 C 7,8 C 7,2 C 69 % 1019,6 hPa 0,0 l/m 0 min 0 min 0 W/m 0,0 km/h (0 Bft) 97,87 %
07.03.2020 20:20 8,7 C 7,8 C 7,2 C 69 % 1019,6 hPa 0,0 l/m 0 min 0 min 0 W/m 0,0 km/h (0 Bft) 95,65 %
07.03.2020 20:22 8,7 C 7,8 C 7,2 C 69 % 1019,6 hPa 0,0 l/m 0 min 0 min 0 W/m 12,9 km/h (3 Bft) 97,87 %
07.03.2020 20:24 8,6 C 7,8 C 7,2 C 69 % 1019,6 hPa 0,0 l/m 0 min 0 min 0 W/m 12,9 km/h (3 Bft) 97,87 %
07.03.2020 20:26 8,6 C 7,8 C 7,2 C 70 % 1019,6 hPa 0,0 l/m 0 min 0 min 0 W/m 3,2 km/h (1 Bft) 97,62 %
07.03.2020 20:28 8,6 C 7,8 C 7,2 C 70 % 1019,5 hPa 0,0 l/m 0 min 0 min 0 W/m 0,0 km/h (0 Bft) 96,00 %
07.03.2020 20:30 8,6 C 7,8 C 7,2 C 70 % 1019,5 hPa 0,0 l/m 0 min 0 min 0 W/m 0,0 km/h (0 Bft) 97,37 %
07.03.2020 20:32 8,6 C 7,8 C 7,2 C 70 % 1019,5 hPa 0,0 l/m 0 min 0 min 0 W/m 0,0 km/h (0 Bft) 97,87 %
07.03.2020 20:34 8,6 C 7,8 C 7,2 C 70 % 1019,5 hPa 0,0 l/m 0 min 0 min 0 W/m 0,0 km/h (0 Bft) 95,65 %
07.03.2020 20:36 8,6 C 7,8 C 7,2 C 70 % 1019,5 hPa 0,0 l/m 0 min 0 min 0 W/m 0,0 km/h (0 Bft) 97,87 %
07.03.2020 20:38 8,6 C 7,8 C 7,2 C 70 % 1019,5 hPa 0,0 l/m 0 min 0 min 0 W/m 3,2 km/h (1 Bft) 97,87 %
07.03.2020 20:40 8,6 C 7,8 C 7,2 C 70 % 1019,5 hPa 0,0 l/m 0 min 0 min 0 W/m 0,0 km/h (0 Bft) 93,62 %
07.03.2020 20:42 8,6 C 7,8 C 7,2 C 70 % 1019,5 hPa 0,0 l/m 0 min 0 min 0 W/m 12,9 km/h (3 Bft) 95,74 %
07.03.2020 20:44 8,6 C 7,8 C 7,2 C 70 % 1019,5 hPa 0,0 l/m 0 min 0 min 0 W/m 6,4 km/h (2 Bft) 93,62 %
07.03.2020 20:46 8,6 C 7,8 C 7,2 C 70 % 1019,5 hPa 0,0 l/m 0 min 0 min 0 W/m 0,0 km/h (0 Bft) 93,48 %
07.03.2020 20:48 8,6 C 7,8 C 7,2 C 70 % 1019,5 hPa 0,0 l/m 0 min 0 min 0 W/m 0,0 km/h (0 Bft) 95,74 %
07.03.2020 20:50 8,6 C 7,8 C 7,2 C 71 % 1019,6 hPa 0,0 l/m 0 min 0 min 0 W/m 0,0 km/h (0 Bft) 95,74 %
07.03.2020 20:52 8,6 C 7,8 C 7,2 C 71 % 1019,5 hPa 0,0 l/m 0 min 0 min 0 W/m 0,0 km/h (0 Bft) 93,62 %
07.03.2020 20:54 8,5 C 7,8 C 7,2 C 71 % 1019,6 hPa 0,0 l/m 0 min 0 min 0 W/m 12,9 km/h (3 Bft) 95,74 %
07.03.2020 20:56 8,5 C 7,8 C 7,2 C 71 % 1019,5 hPa 0,0 l/m 0 min 0 min 0 W/m 0,0 km/h (0 Bft) 90,38 %
07.03.2020 20:58 8,5 C 7,8 C 7,2 C 71 % 1019,5 hPa 0,0 l/m 0 min 0 min 0 W/m 0,0 km/h (0 Bft) 95,74 %
07.03.2020 21:00 8,5 C 7,8 C 7,2 C 71 % 1019,5 hPa 0,0 l/m 0 min 0 min 0 W/m 3,2 km/h (1 Bft) 97,87 %
07.03.2020 21:02 8,4 C 7,8 C 7,2 C 71 % 1019,5 hPa 0,0 l/m 0 min 0 min 0 W/m 0,0 km/h (0 Bft) 94,00 %
07.03.2020 21:04 8,4 C 7,8 C 7,2 C 71 % 1019,5 hPa 0,0 l/m 0 min 0 min 0 W/m 0,0 km/h (0 Bft) 97,37 %
07.03.2020 21:06 8,4 C 7,8 C 7,2 C 71 % 1019,5 hPa 0,0 l/m 0 min 0 min 0 W/m 22,5 km/h (4 Bft) 95,74 %
07.03.2020 21:08 8,4 C 7,8 C 7,2 C 71 % 1019,5 hPa 0,0 l/m 0 min 0 min 0 W/m 12,9 km/h (3 Bft) 95,65 %
07.03.2020 21:10 8,4 C 7,8 C 7,2 C 71 % 1019,5 hPa 0,0 l/m 0 min 0 min 0 W/m 19,3 km/h (3 Bft) 93,62 %
07.03.2020 21:12 8,4 C 7,8 C 7,2 C 71 % 1019,4 hPa 0,0 l/m 0 min 0 min 0 W/m 0,0 km/h (0 Bft) 95,74 %
07.03.2020 21:14 8,4 C 7,8 C 7,2 C 71 % 1019,5 hPa 0,0 l/m 0 min 0 min 0 W/m 19,3 km/h (3 Bft) 93,62 %
07.03.2020 21:16 8,4 C 7,8 C 7,2 C 71 % 1019,5 hPa 0,0 l/m 0 min 0 min 0 W/m 16,1 km/h (3 Bft) 93,62 %
07.03.2020 21:18 8,4 C 7,8 C 7,2 C 71 % 1019,5 hPa 0,0 l/m 0 min 0 min 0 W/m 16,1 km/h (3 Bft) 95,74 %
07.03.2020 21:20 8,4 C 7,8 C 7,2 C 71 % 1019,5 hPa 0,0 l/m 0 min 0 min 0 W/m 16,1 km/h (3 Bft) 95,65 %
07.03.2020 21:22 8,4 C 7,8 C 7,2 C 71 % 1019,5 hPa 0,0 l/m 0 min 0 min 0 W/m 19,3 km/h (3 Bft) 95,74 %
07.03.2020 21:24 8,4 C 7,8 C 7,2 C 71 % 1019,5 hPa 0,0 l/m 0 min 0 min 0 W/m 16,1 km/h (3 Bft) 97,87 %
07.03.2020 21:26 8,4 C 7,8 C 7,2 C 71 % 1019,5 hPa 0,0 l/m 0 min 0 min 0 W/m 25,7 km/h (4 Bft) 98,11 %
07.03.2020 21:28 8,4 C 7,8 C 7,2 C 71 % 1019,5 hPa 0,0 l/m 0 min 0 min 0 W/m 19,3 km/h (3 Bft) 96,00 %
07.03.2020 21:30 8,4 C 7,8 C 7,2 C 71 % 1019,5 hPa 0,0 l/m 0 min 0 min 0 W/m 19,3 km/h (3 Bft) 97,30 %
07.03.2020 21:32 8,4 C 7,8 C 7,2 C 71 % 1019,5 hPa 0,0 l/m 0 min 0 min 0 W/m 32,2 km/h (5 Bft) 95,74 %
07.03.2020 21:34 8,4 C 7,8 C 7,2 C 71 % 1019,5 hPa 0,0 l/m 0 min 0 min 0 W/m 19,3 km/h (3 Bft) 97,87 %
07.03.2020 21:36 8,5 C 7,8 C 7,2 C 71 % 1019,5 hPa 0,0 l/m 0 min 0 min 0 W/m 16,1 km/h (3 Bft) 95,74 %
07.03.2020 21:38 8,5 C 7,8 C 7,2 C 71 % 1019,5 hPa 0,0 l/m 0 min 0 min 0 W/m 16,1 km/h (3 Bft) 97,87 %
07.03.2020 21:40 8,5 C 7,8 C 7,2 C 71 % 1019,5 hPa 0,0 l/m 0 min 0 min 0 W/m 19,3 km/h (3 Bft) 97,87 %
07.03.2020 21:42 8,5 C 7,8 C 7,2 C 71 % 1019,5 hPa 0,0 l/m 0 min 0 min 0 W/m 16,1 km/h (3 Bft) 97,83 %
07.03.2020 21:44 8,5 C 7,8 C 7,2 C 71 % 1019,5 hPa 0,0 l/m 0 min 0 min 0 W/m 19,3 km/h (3 Bft) 97,87 %
07.03.2020 21:46 8,5 C 7,8 C 7,2 C 71 % 1019,5 hPa 0,0 l/m 0 min 0 min 0 W/m 22,5 km/h (4 Bft) 93,62 %
07.03.2020 21:48 8,6 C 7,8 C 7,2 C 71 % 1019,5 hPa 0,0 l/m 0 min 0 min 0 W/m 12,9 km/h (3 Bft) 97,87 %
07.03.2020 21:50 8,6 C 7,8 C 7,2 C 72 % 1019,5 hPa 0,0 l/m 0 min 0 min 0 W/m 0,0 km/h (0 Bft) 97,87 %
07.03.2020 21:52 8,6 C 7,8 C 7,2 C 72 % 1019,5 hPa 0,0 l/m 0 min 0 min 0 W/m 0,0 km/h (0 Bft) 97,87 %
07.03.2020 21:54 8,6 C 7,8 C 7,2 C 72 % 1019,5 hPa 0,0 l/m 0 min 0 min 0 W/m 19,3 km/h (3 Bft) 97,83 %
07.03.2020 21:56 8,6 C 7,8 C 7,2 C 72 % 1019,5 hPa 0,0 l/m 0 min 0 min 0 W/m 6,4 km/h (2 Bft) 97,87 %
07.03.2020 21:58 8,6 C 7,8 C 7,2 C 72 % 1019,5 hPa 0,0 l/m 0 min 0 min 0 W/m 16,1 km/h (3 Bft) 97,87 %
07.03.2020 22:00 8,6 C 7,8 C 7,2 C 72 % 1019,5 hPa 0,0 l/m 0 min 0 min 0 W/m 22,5 km/h (4 Bft) 96,23 %
07.03.2020 22:02 8,6 C 7,8 C 7,2 C 72 % 1019,5 hPa 0,0 l/m 0 min 0 min 0 W/m 6,4 km/h (2 Bft) 95,74 %
07.03.2020 22:04 8,6 C 7,8 C 7,2 C 72 % 1019,5 hPa 0,0 l/m 0 min 0 min 0 W/m 19,3 km/h (3 Bft) 95,74 %
07.03.2020 22:06 8,6 C 7,8 C 7,2 C 72 % 1019,5 hPa 0,0 l/m 0 min 0 min 0 W/m 12,9 km/h (3 Bft) 95,92 %
07.03.2020 22:08 8,5 C 7,8 C 7,2 C 72 % 1019,4 hPa 0,0 l/m 0 min 0 min 0 W/m 16,1 km/h (3 Bft) 100,00 %
07.03.2020 22:10 8,5 C 7,8 C 7,2 C 72 % 1019,4 hPa 0,0 l/m 0 min 0 min 0 W/m 25,7 km/h (4 Bft) 97,87 %
07.03.2020 22:12 8,5 C 7,8 C 7,2 C 72 % 1019,4 hPa 0,0 l/m 0 min 0 min 0 W/m 22,5 km/h (4 Bft) 97,87 %
07.03.2020 22:14 8,5 C 7,8 C 7,2 C 72 % 1019,4 hPa 0,0 l/m 0 min 0 min 0 W/m 16,1 km/h (3 Bft) 100,00 %
07.03.2020 22:16 8,5 C 7,8 C 7,2 C 72 % 1019,4 hPa 0,0 l/m 0 min 0 min 0 W/m 25,7 km/h (4 Bft) 100,00 %
07.03.2020 22:18 8,5 C 7,8 C 7,2 C 72 % 1019,4 hPa 0,0 l/m 0 min 0 min 0 W/m 16,1 km/h (3 Bft) 100,00 %
07.03.2020 22:20 8,5 C 7,8 C 7,2 C 73 % 1019,4 hPa 0,0 l/m 0 min 0 min 0 W/m 16,1 km/h (3 Bft) 97,87 %
07.03.2020 22:22 8,5 C 7,8 C 7,2 C 73 % 1019,5 hPa 0,0 l/m 0 min 0 min 0 W/m 22,5 km/h (4 Bft) 100,00 %
07.03.2020 22:24 8,5 C 7,8 C 7,2 C 73 % 1019,4 hPa 0,0 l/m 0 min 0 min 0 W/m 16,1 km/h (3 Bft) 100,00 %
07.03.2020 22:26 8,5 C 7,8 C 7,2 C 73 % 1019,4 hPa 0,0 l/m 0 min 0 min 0 W/m 0,0 km/h (0 Bft) 97,87 %
07.03.2020 22:28 8,5 C 7,8 C 7,2 C 73 % 1019,4 hPa 0,0 l/m 0 min 0 min 0 W/m 6,4 km/h (2 Bft) 100,00 %
07.03.2020 22:30 8,5 C 7,8 C 7,2 C 73 % 1019,4 hPa 0,0 l/m 0 min 0 min 0 W/m 12,9 km/h (3 Bft) 97,87 %
07.03.2020 22:32 8,5 C 7,8 C 7,2 C 73 % 1019,3 hPa 0,0 l/m 0 min 0 min 0 W/m 19,3 km/h (3 Bft) 100,00 %
07.03.2020 22:34 8,5 C 7,8 C 7,2 C 73 % 1019,3 hPa 0,0 l/m 0 min 0 min 0 W/m 25,7 km/h (4 Bft) 100,00 %
07.03.2020 22:36 8,5 C 7,8 C 7,2 C 73 % 1019,3 hPa 0,0 l/m 0 min 0 min 0 W/m 19,3 km/h (3 Bft) 100,00 %
07.03.2020 22:38 8,5 C 7,8 C 7,2 C 74 % 1019,2 hPa 0,0 l/m 0 min 0 min 0 W/m 19,3 km/h (3 Bft) 97,87 %
07.03.2020 22:40 8,4 C 7,8 C 7,2 C 74 % 1019,2 hPa 0,0 l/m 0 min 0 min 0 W/m 22,5 km/h (4 Bft) 100,00 %
07.03.2020 22:42 8,4 C 7,8 C 7,2 C 74 % 1019,2 hPa 0,0 l/m 0 min 0 min 0 W/m 19,3 km/h (3 Bft) 100,00 %
07.03.2020 22:44 8,4 C 7,8 C 7,2 C 74 % 1019,2 hPa 0,0 l/m 0 min 0 min 0 W/m 22,5 km/h (4 Bft) 100,00 %
07.03.2020 22:46 8,4 C 7,8 C 7,2 C 74 % 1019,2 hPa 0,0 l/m 0 min 0 min 0 W/m 6,4 km/h (2 Bft) 97,37 %
07.03.2020 22:48 8,4 C 7,8 C 7,2 C 74 % 1019,2 hPa 0,0 l/m 0 min 0 min 0 W/m 22,5 km/h (4 Bft) 97,87 %
07.03.2020 22:50 8,4 C 7,8 C 7,2 C 74 % 1019,2 hPa 0,0 l/m 0 min 0 min 0 W/m 25,7 km/h (4 Bft) 97,87 %
07.03.2020 22:52 8,4 C 7,8 C 7,2 C 74 % 1019,2 hPa 0,0 l/m 0 min 0 min 0 W/m 22,5 km/h (4 Bft) 97,83 %
07.03.2020 22:54 8,4 C 7,8 C 7,2 C 74 % 1019,1 hPa 0,0 l/m 0 min 0 min 0 W/m 22,5 km/h (4 Bft) 97,87 %
07.03.2020 22:56 8,4 C 7,8 C 7,2 C 74 % 1019,1 hPa 0,0 l/m 0 min 0 min 0 W/m 16,1 km/h (3 Bft) 98,11 %
07.03.2020 22:58 8,4 C 7,8 C 7,2 C 74 % 1019,1 hPa 0,0 l/m 0 min 0 min 0 W/m 29,0 km/h (5 Bft) 97,87 %
07.03.2020 23:00 8,4 C 7,8 C 7,2 C 75 % 1019,0 hPa 0,0 l/m 0 min 0 min 0 W/m 16,1 km/h (3 Bft) 97,87 %
07.03.2020 23:02 8,4 C 7,8 C 7,2 C 75 % 1019,1 hPa 0,0 l/m 0 min 0 min 0 W/m 19,3 km/h (3 Bft) 98,00 %
07.03.2020 23:04 8,4 C 7,8 C 7,2 C 75 % 1019,1 hPa 0,0 l/m 0 min 0 min 0 W/m 22,5 km/h (4 Bft) 97,30 %
07.03.2020 23:06 8,4 C 7,8 C 7,2 C 75 % 1019,1 hPa 0,0 l/m 0 min 0 min 0 W/m 16,1 km/h (3 Bft) 97,87 %
07.03.2020 23:08 8,4 C 7,8 C 7,2 C 75 % 1019,1 hPa 0,0 l/m 0 min 0 min 0 W/m 25,7 km/h (4 Bft) 97,87 %
07.03.2020 23:10 8,4 C 7,8 C 7,2 C 75 % 1019,0 hPa 0,0 l/m 0 min 0 min 0 W/m 22,5 km/h (4 Bft) 97,87 %
07.03.2020 23:12 8,4 C 7,8 C 7,2 C 75 % 1019,0 hPa 0,0 l/m 0 min 0 min 0 W/m 22,5 km/h (4 Bft) 95,74 %
07.03.2020 23:14 8,4 C 7,8 C 7,2 C 75 % 1019,0 hPa 0,0 l/m 0 min 0 min 0 W/m 19,3 km/h (3 Bft) 95,74 %
07.03.2020 23:16 8,4 C 7,8 C 7,2 C 76 % 1018,9 hPa 0,0 l/m 0 min 0 min 0 W/m 19,3 km/h (3 Bft) 97,83 %
07.03.2020 23:18 8,4 C 7,8 C 7,2 C 75 % 1018,9 hPa 0,0 l/m 0 min 0 min 0 W/m 25,7 km/h (4 Bft) 97,87 %
07.03.2020 23:20 8,4 C 7,8 C 7,2 C 76 % 1018,9 hPa 0,0 l/m 0 min 0 min 0 W/m 19,3 km/h (3 Bft) 97,87 %
07.03.2020 23:22 8,4 C 7,8 C 7,2 C 76 % 1018,9 hPa 0,0 l/m 0 min 0 min 0 W/m 16,1 km/h (3 Bft) 97,87 %
07.03.2020 23:24 8,4 C 7,8 C 7,2 C 76 % 1018,9 hPa 0,0 l/m 0 min 0 min 0 W/m 22,5 km/h (4 Bft) 97,87 %
07.03.2020 23:26 8,4 C 7,8 C 7,2 C 76 % 1018,9 hPa 0,0 l/m 0 min 0 min 0 W/m 19,3 km/h (3 Bft) 96,23 %
07.03.2020 23:28 8,4 C 7,8 C 7,2 C 76 % 1018,9 hPa 0,0 l/m 0 min 0 min 0 W/m 16,1 km/h (3 Bft) 95,65 %
07.03.2020 23:30 8,3 C 7,8 C 7,2 C 76 % 1018,9 hPa 0,0 l/m 0 min 0 min 0 W/m 12,9 km/h (3 Bft) 95,74 %
07.03.2020 23:32 8,4 C 7,8 C 7,2 C 76 % 1018,9 hPa 0,0 l/m 0 min 0 min 0 W/m 9,7 km/h (2 Bft) 95,74 %
07.03.2020 23:34 8,3 C 7,8 C 7,2 C 76 % 1018,8 hPa 0,0 l/m 0 min 0 min 0 W/m 22,5 km/h (4 Bft) 98,00 %
07.03.2020 23:36 8,3 C 7,8 C 7,2 C 77 % 1018,8 hPa 0,0 l/m 0 min 0 min 0 W/m 22,5 km/h (4 Bft) 97,37 %
07.03.2020 23:38 8,3 C 7,8 C 7,2 C 77 % 1018,8 hPa 0,0 l/m 0 min 0 min 0 W/m 32,2 km/h (5 Bft) 95,74 %
07.03.2020 23:40 8,3 C 7,8 C 7,2 C 77 % 1018,8 hPa 0,0 l/m 0 min 0 min 0 W/m 19,3 km/h (3 Bft) 97,83 %
07.03.2020 23:42 8,3 C 7,8 C 7,2 C 77 % 1018,8 hPa 0,0 l/m 0 min 0 min 0 W/m 16,1 km/h (3 Bft) 97,87 %
07.03.2020 23:44 8,3 C 7,8 C 7,2 C 77 % 1018,7 hPa 0,0 l/m 0 min 0 min 0 W/m 22,5 km/h (4 Bft) 97,87 %
07.03.2020 23:46 8,3 C 7,8 C 7,2 C 77 % 1018,7 hPa 0,0 l/m 0 min 0 min 0 W/m 25,7 km/h (4 Bft) 97,87 %
07.03.2020 23:48 8,3 C 7,8 C 7,2 C 77 % 1018,8 hPa 0,0 l/m 0 min 0 min 0 W/m 19,3 km/h (3 Bft) 95,74 %
07.03.2020 23:50 8,3 C 7,8 C 7,2 C 77 % 1018,7 hPa 0,0 l/m 0 min 0 min 0 W/m 22,5 km/h (4 Bft) 97,83 %
07.03.2020 23:52 8,3 C 7,8 C 7,2 C 78 % 1018,7 hPa 0,0 l/m 0 min 0 min 0 W/m 22,5 km/h (4 Bft) 95,74 %
07.03.2020 23:54 8,3 C 7,8 C 7,2 C 78 % 1018,6 hPa 0,0 l/m 0 min 0 min 0 W/m 12,9 km/h (3 Bft) 97,87 %
07.03.2020 23:56 8,3 C 7,2 C 6,7 C 78 % 1018,6 hPa 0,0 l/m 0 min 0 min 0 W/m 16,1 km/h (3 Bft) 97,87 %
07.03.2020 23:58 8,3 C 7,2 C 6,7 C 78 % 1018,6 hPa 0,0 l/m 0 min 0 min 0 W/m 16,1 km/h (3 Bft) 97,87 %
_ Min-Zeit 06:56 06:38 06:44 15:34 00:00 - - - - 00:04 07:22
Minimum _ 1,4 C 0,0 C -1,1 C 64 % 1010,4 hPa - - - - 0,0 km/h (0 Bft) 53,33 %
_ Max-Zeit 14:22 11:58 13:12 09:05 19:30 00:00 12:08 00:00 12:00 15:28 01:32
Maximum _ 10,9 C 16,7 C 15,0 C 98 % 1019,9 hPa 0,0 l/m 4 min 0 min 771 W/m 32,2 km/h
W-SW (5 Bft)
100,00 %
Durchschnitt _ 6,5 C 7,0 C 5,5 C 81 % 1017,2 hPa #0,0 l/m #5:10 h #0 min. 261 W/m 6,9 km/h (2 Bft) 97,38 %
© 2020 W. Hausmann